Observation data for Endee on 05/26/2019      Previous  Date  Next       Current Mesonet Observations  Soil Data  Daily Summary Page  Observations in Plain Language
KEN1 260500Z 16015KT 20/18 A2996 RMK A01 T01950176  RH  088%=      5-min Rain = 0
KEN1 260501Z 16013G18KT 20/18 A2996 RMK A01 T01950176  RH  088%=      5-min Rain = 0
KEN1 260502Z 16014KT 20/18 A2996 RMK A01 T01950176  RH  089%=      5-min Rain = 0
KEN1 260503Z 16015KT 20/18 A2996 RMK A01 T01950176  RH  089%=      5-min Rain = 0
KEN1 260504Z 16014KT 20/18 A2996 RMK A01 T01950176  RH  089%=      5-min Rain = 0
KEN1 260505Z 16014KT 20/18 A2996 RMK A01 T01950176  RH  089%=      5-min Rain = 0
KEN1 260506Z 16015KT 20/18 A2996 RMK A01 T01950176  RH  089%=      5-min Rain = 0
KEN1 260507Z 17015KT 20/18 A2996 RMK A01 T01950176  RH  089%=      5-min Rain = 0
KEN1 260508Z 16014KT 20/18 A2996 RMK A01 T01960176  RH  088%=      5-min Rain = 0
KEN1 260509Z 17015KT 20/18 A2996 RMK A01 T01960176  RH  088%=      5-min Rain = 0
KEN1 260510Z 16016KT 20/18 A2996 RMK A01 T01960176  RH  088%=      5-min Rain = 0
KEN1 260511Z 17015KT 20/18 A2996 RMK A01 T01970176  RH  088%=      5-min Rain = 0
KEN1 260512Z 17013KT 20/18 A2996 RMK A01 T01970176  RH  088%=      5-min Rain = 0
KEN1 260513Z 17015KT 20/18 A2995 RMK A01 T01970176  RH  088%=      5-min Rain = 0
KEN1 260514Z 17014KT 20/18 A2996 RMK A01 T01970176  RH  088%=      5-min Rain = 0
KEN1 260515Z 17014KT 20/18 A2996 RMK A01 T01970176  RH  087%=      5-min Rain = 0
KEN1 260516Z 17015KT 20/18 A2996 RMK A01 T01970176  RH  087%=      5-min Rain = 0
KEN1 260517Z 17015KT 20/18 A2996 RMK A01 T01980176  RH  087%=      5-min Rain = 0
KEN1 260518Z 17014KT 20/18 A2996 RMK A01 T01980176  RH  087%=      5-min Rain = 0
KEN1 260519Z 17013KT 20/18 A2996 RMK A01 T01980176  RH  087%=      5-min Rain = 0
KEN1 260520Z 17014KT 20/18 A2996 RMK A01 T01980176  RH  087%=      5-min Rain = 0
KEN1 260521Z 17013KT 20/18 A2996 RMK A01 T01980176  RH  087%=      5-min Rain = 0
KEN1 260522Z 17014KT 20/18 A2995 RMK A01 T01980176  RH  087%=      5-min Rain = 0
KEN1 260523Z 17014KT 20/18 A2995 RMK A01 T01980176  RH  087%=      5-min Rain = 0
KEN1 260524Z 17014KT 20/18 A2995 RMK A01 T01990177  RH  087%=      5-min Rain = 0
KEN1 260525Z 17015KT 20/18 A2995 RMK A01 T01990177  RH  087%=      5-min Rain = 0
KEN1 260526Z 17015KT 20/18 A2995 RMK A01 T01990177  RH  087%=      5-min Rain = 0
KEN1 260527Z 17015KT 20/18 A2995 RMK A01 T02000177  RH  087%=      5-min Rain = 0
KEN1 260528Z 17017KT 20/18 A2995 RMK A01 T02000177  RH  087%=      5-min Rain = 0
KEN1 260529Z 17017KT 20/18 A2995 RMK A01 T02010177  RH  086%=      5-min Rain = 0
KEN1 260530Z 17018KT 20/18 A2995 RMK A01 T02020178  RH  086%=      5-min Rain = 0
KEN1 260531Z 17016KT 20/18 A2995 RMK A01 T02030178  RH  086%=      5-min Rain = 0
KEN1 260532Z 17015G20KT 20/18 A2995 RMK A01 T02030178  RH  086%=      5-min Rain = 0
KEN1 260533Z 17018G23KT 20/18 A2995 RMK A01 T02020178  RH  086%=      5-min Rain = 0
KEN1 260534Z 18020KT 20/18 A2995 RMK A01 T02020178  RH  086%=      5-min Rain = 0
KEN1 260535Z 18018KT 20/18 A2995 RMK A01 T02030178  RH  086%=      5-min Rain = 0
KEN1 260536Z 18018KT 20/18 A2995 RMK A01 T02030178  RH  085%=      5-min Rain = 0
KEN1 260537Z 17017KT 20/18 A2995 RMK A01 T02030178  RH  085%=      5-min Rain = 0
KEN1 260538Z 17017KT 20/18 A2995 RMK A01 T02030178  RH  086%=      5-min Rain = 0
KEN1 260539Z 17015KT 20/18 A2995 RMK A01 T02030178  RH  086%=      5-min Rain = 0
KEN1 260540Z 18015KT 20/18 A2995 RMK A01 T02030178  RH  086%=      5-min Rain = 0
KEN1 260541Z 18014KT 20/18 A2995 RMK A01 T02020178  RH  086%=      5-min Rain = 0
KEN1 260542Z 18015KT 20/18 A2995 RMK A01 T02020178  RH  086%=      5-min Rain = 0
KEN1 260543Z 18015KT 20/18 A2995 RMK A01 T02020178  RH  086%=      5-min Rain = 0
KEN1 260544Z 18013KT 20/18 A2995 RMK A01 T02010178  RH  086%=      5-min Rain = 0
KEN1 260545Z 18012KT 20/18 A2995 RMK A01 T02010178  RH  087%=      5-min Rain = 0
KEN1 260546Z 18014KT 20/18 A2995 RMK A01 T02000178  RH  087%=      5-min Rain = 0
KEN1 260547Z 18016KT 20/18 A2995 RMK A01 T02000178  RH  087%=      5-min Rain = 0
KEN1 260548Z 18015KT 20/18 A2995 RMK A01 T02000178  RH  087%=      5-min Rain = 0
KEN1 260549Z 17016KT 20/18 A2995 RMK A01 T02010177  RH  086%=      5-min Rain = 0
KEN1 260550Z 18015KT 20/18 A2995 RMK A01 T02010177  RH  086%=      5-min Rain = 0
KEN1 260551Z 18013KT 20/18 A2995 RMK A01 T02010178  RH  086%=      5-min Rain = 0
KEN1 260552Z 18013KT 20/18 A2995 RMK A01 T02000177  RH  086%=      5-min Rain = 0
KEN1 260553Z 18012KT 20/18 A2995 RMK A01 T02000177  RH  087%=      5-min Rain = 0
KEN1 260554Z 18014KT 20/18 A2995 RMK A01 T01990177  RH  087%=      5-min Rain = 0
KEN1 260555Z 18014KT 20/18 A2995 RMK A01 T01990177  RH  087%=      5-min Rain = 0
KEN1 260556Z 18015KT 20/18 A2995 RMK A01 T01990177  RH  087%=      5-min Rain = 0
KEN1 260557Z 18014KT 20/18 A2995 RMK A01 T01990177  RH  087%=      5-min Rain = 0
KEN1 260558Z 18014KT 20/18 A2995 RMK A01 T02000176  RH  087%=      5-min Rain = 0
KEN1 260559Z 18012KT 20/18 A2995 RMK A01 T02000176  RH  086%=      5-min Rain = 0
KEN1 260600Z 19013KT 20/18 A2995 RMK A01 T01990176  RH  087%=      5-min Rain = 0
KEN1 260601Z 19014KT 20/18 A2995 RMK A01 T01990176  RH  087%=      5-min Rain = 0
KEN1 260602Z 18013KT 20/18 A2995 RMK A01 T01990176  RH  087%=      5-min Rain = 0
KEN1 260603Z 18014KT 20/18 A2995 RMK A01 T01990176  RH  087%=      5-min Rain = 0
KEN1 260604Z 18015KT 20/18 A2995 RMK A01 T01990175  RH  086%=      5-min Rain = 0
KEN1 260605Z 18014KT 20/18 A2995 RMK A01 T01990175  RH  086%=      5-min Rain = 0
KEN1 260606Z 18014KT 20/18 A2995 RMK A01 T01990175  RH  086%=      5-min Rain = 0
KEN1 260607Z 18015KT 20/18 A2995 RMK A01 T01990175  RH  086%=      5-min Rain = 0
KEN1 260608Z 18013KT 20/18 A2995 RMK A01 T01990175  RH  086%=      5-min Rain = 0
KEN1 260609Z 18014KT 20/18 A2995 RMK A01 T01990175  RH  086%=      5-min Rain = 0
KEN1 260610Z 18013KT 20/18 A2995 RMK A01 T01990175  RH  086%=      5-min Rain = 0
KEN1 260611Z 18013KT 20/18 A2995 RMK A01 T01990175  RH  086%=      5-min Rain = 0
KEN1 260612Z 18014KT 20/17 A2995 RMK A01 T01990174  RH  086%=      5-min Rain = 0
KEN1 260613Z 18014KT 20/17 A2995 RMK A01 T01990174  RH  086%=      5-min Rain = 0
KEN1 260614Z 18013G19KT 20/17 A2995 RMK A01 T01990174  RH  086%=      5-min Rain = 0
KEN1 260615Z 18012KT 20/17 A2995 RMK A01 T01990174  RH  086%=      5-min Rain = 0
KEN1 260616Z 18013KT 20/17 A2995 RMK A01 T01990174  RH  086%=      5-min Rain = 0
KEN1 260617Z 18014KT 20/17 A2995 RMK A01 T01980174  RH  086%=      5-min Rain = 0
KEN1 260618Z 18017KT 20/17 A2995 RMK A01 T01980174  RH  086%=      5-min Rain = 0
KEN1 260619Z 18016KT 20/17 A2995 RMK A01 T01980174  RH  086%=      5-min Rain = 0
KEN1 260620Z 18017KT 20/17 A2995 RMK A01 T01990174  RH  085%=      5-min Rain = 0
KEN1 260621Z 18015KT 20/17 A2995 RMK A01 T01990174  RH  085%=      5-min Rain = 0
KEN1 260622Z 18018KT 20/17 A2995 RMK A01 T01990174  RH  085%=      5-min Rain = 0
KEN1 260623Z 18018KT 20/17 A2995 RMK A01 T01990174  RH  085%=      5-min Rain = 0
KEN1 260624Z 18016KT 20/17 A2995 RMK A01 T01990174  RH  085%=      5-min Rain = 0
KEN1 260625Z 18016KT 20/17 A2995 RMK A01 T01990174  RH  085%=      5-min Rain = 0
KEN1 260626Z 18015KT 20/17 A2995 RMK A01 T01990174  RH  086%=      5-min Rain = 0
KEN1 260627Z 18016KT 20/17 A2995 RMK A01 T01980174  RH  086%=      5-min Rain = 0
KEN1 260628Z 18017KT 20/17 A2995 RMK A01 T01980174  RH  086%=      5-min Rain = 0
KEN1 260629Z 19016KT 20/17 A2995 RMK A01 T01990174  RH  086%=      5-min Rain = 0
KEN1 260630Z 19015G20KT 20/17 A2995 RMK A01 T01990174  RH  086%=      5-min Rain = 0
KEN1 260631Z 19016KT 20/17 A2995 RMK A01 T01980174  RH  086%=      5-min Rain = 0
KEN1 260632Z 19015KT 20/17 A2995 RMK A01 T01980174  RH  086%=      5-min Rain = 0
KEN1 260633Z 18015KT 20/17 A2995 RMK A01 T01980173  RH  086%=      5-min Rain = 0
KEN1 260634Z 19015KT 20/17 A2995 RMK A01 T01980174  RH  086%=      5-min Rain = 0
KEN1 260635Z 19016KT 20/17 A2995 RMK A01 T01980173  RH  086%=      5-min Rain = 0
KEN1 260636Z 19016KT 20/17 A2995 RMK A01 T01980174  RH  086%=      5-min Rain = 0
KEN1 260637Z 19013KT 20/17 A2995 RMK A01 T01980173  RH  086%=      5-min Rain = 0
KEN1 260638Z 19012KT 20/17 A2995 RMK A01 T01980174  RH  086%=      5-min Rain = 0
KEN1 260639Z 18014KT 20/17 A2995 RMK A01 T01970173  RH  086%=      5-min Rain = 0
KEN1 260640Z 18015KT 20/17 A2995 RMK A01 T01960173  RH  086%=      5-min Rain = 0
KEN1 260641Z 18014KT 20/17 A2995 RMK A01 T01970173  RH  086%=      5-min Rain = 0
KEN1 260642Z 18016KT 20/17 A2995 RMK A01 T01960173  RH  086%=      5-min Rain = 0
KEN1 260643Z 18014KT 20/17 A2995 RMK A01 T01960173  RH  086%=      5-min Rain = 0
KEN1 260644Z 18015KT 20/17 A2995 RMK A01 T01960173  RH  086%=      5-min Rain = 0
KEN1 260645Z 18013KT 20/17 A2995 RMK A01 T01960173  RH  086%=      5-min Rain = 0
KEN1 260646Z 18014KT 20/17 A2995 RMK A01 T01960172  RH  086%=      5-min Rain = 0
KEN1 260647Z 18015KT 20/17 A2995 RMK A01 T01950172  RH  086%=      5-min Rain = 0
KEN1 260648Z 18013KT 20/17 A2995 RMK A01 T01960172  RH  086%=      5-min Rain = 0
KEN1 260649Z 18013KT 20/17 A2995 RMK A01 T01960172  RH  086%=      5-min Rain = 0
KEN1 260650Z 18015KT 20/17 A2995 RMK A01 T01950172  RH  086%=      5-min Rain = 0
KEN1 260651Z 18016KT 20/17 A2995 RMK A01 T01950172  RH  086%=      5-min Rain = 0
KEN1 260652Z 18014KT 20/17 A2995 RMK A01 T01960172  RH  086%=      5-min Rain = 0
KEN1 260653Z 18016KT 20/17 A2995 RMK A01 T01960172  RH  086%=      5-min Rain = 0
KEN1 260654Z 18015KT 20/17 A2995 RMK A01 T01960172  RH  086%=      5-min Rain = 0
KEN1 260655Z 18014KT 20/17 A2995 RMK A01 T01960172  RH  086%=      5-min Rain = 0
KEN1 260656Z 18015KT 20/17 A2995 RMK A01 T01960172  RH  086%=      5-min Rain = 0
KEN1 260657Z 18015KT 20/17 A2995 RMK A01 T01960172  RH  086%=      5-min Rain = 0
KEN1 260658Z 18015KT 20/17 A2995 RMK A01 T01960171  RH  086%=      5-min Rain = 0
KEN1 260659Z 18015KT 20/17 A2995 RMK A01 T01960171  RH  086%=      5-min Rain = 0
KEN1 260700Z 18015KT 20/17 A2995 RMK A01 T01950171  RH  086%=      5-min Rain = 0
KEN1 260701Z 18016KT 20/17 A2995 RMK A01 T01950171  RH  086%=      5-min Rain = 0
KEN1 260702Z 18017KT 20/17 A2995 RMK A01 T01950171  RH  086%=      5-min Rain = 0
KEN1 260703Z 18015KT 20/17 A2995 RMK A01 T01960171  RH  086%=      5-min Rain = 0
KEN1 260704Z 18017KT 20/17 A2995 RMK A01 T01960171  RH  086%=      5-min Rain = 0
KEN1 260705Z 18013KT 20/17 A2995 RMK A01 T01960171  RH  085%=      5-min Rain = 0
KEN1 260706Z 18014KT 20/17 A2995 RMK A01 T01960171  RH  086%=      5-min Rain = 0
KEN1 260707Z 18015KT 20/17 A2995 RMK A01 T01950171  RH  086%=      5-min Rain = 0
KEN1 260708Z 18017G22KT 20/17 A2995 RMK A01 T01950171  RH  086%=      5-min Rain = 0
KEN1 260709Z 18016KT 20/17 A2995 RMK A01 T01950170  RH  086%=      5-min Rain = 0
KEN1 260710Z 18016KT 20/17 A2995 RMK A01 T01950170  RH  085%=      5-min Rain = 0
KEN1 260711Z 18017KT 20/17 A2995 RMK A01 T01960170  RH  085%=      5-min Rain = 0
KEN1 260712Z 18017KT 20/17 A2995 RMK A01 T01950170  RH  085%=      5-min Rain = 0
KEN1 260713Z 18017KT 20/17 A2995 RMK A01 T01960170  RH  085%=      5-min Rain = 0
KEN1 260714Z 18017KT 20/17 A2995 RMK A01 T01960170  RH  085%=      5-min Rain = 0
KEN1 260715Z 18019G25KT 20/17 A2995 RMK A01 T01960169  RH  085%=      5-min Rain = 0
KEN1 260716Z 18019KT 20/17 A2995 RMK A01 T01970169  RH  084%=      5-min Rain = 0
KEN1 260717Z 19019KT 20/17 A2995 RMK A01 T01970169  RH  084%=      5-min Rain = 0
KEN1 260718Z 18017KT 20/17 A2995 RMK A01 T01970169  RH  084%=      5-min Rain = 0
KEN1 260719Z 19019KT 20/17 A2995 RMK A01 T01970169  RH  084%=      5-min Rain = 0
KEN1 260720Z 19017KT 20/17 A2995 RMK A01 T01970169  RH  084%=      5-min Rain = 0
KEN1 260721Z 18018KT 20/17 A2995 RMK A01 T01970169  RH  084%=      5-min Rain = 0
KEN1 260722Z 19015KT 20/17 A2995 RMK A01 T01960168  RH  084%=      5-min Rain = 0
KEN1 260723Z 18017KT 20/17 A2995 RMK A01 T01960168  RH  084%=      5-min Rain = 0
KEN1 260724Z 18017KT 20/17 A2995 RMK A01 T01960168  RH  084%=      5-min Rain = 0
KEN1 260725Z 18016KT 20/17 A2995 RMK A01 T01960168  RH  084%=      5-min Rain = 0
KEN1 260726Z 18016KT 20/17 A2995 RMK A01 T01950168  RH  084%=      5-min Rain = 0
KEN1 260727Z 19016KT 20/17 A2995 RMK A01 T01950167  RH  084%=      5-min Rain = 0
KEN1 260728Z 18016KT 20/17 A2995 RMK A01 T01950167  RH  084%=      5-min Rain = 0
KEN1 260729Z 19015KT 20/17 A2995 RMK A01 T01950166  RH  084%=      5-min Rain = 0
KEN1 260730Z 18014KT 20/17 A2995 RMK A01 T01950167  RH  084%=      5-min Rain = 0
KEN1 260731Z 19015KT 20/17 A2995 RMK A01 T01950167  RH  084%=      5-min Rain = 0
KEN1 260732Z 19014KT 20/17 A2995 RMK A01 T01950166  RH  084%=      5-min Rain = 0
KEN1 260733Z 18014KT 20/17 A2995 RMK A01 T01950166  RH  083%=      5-min Rain = 0
KEN1 260734Z 18014KT 19/17 A2995 RMK A01 T01940166  RH  084%=      5-min Rain = 0
KEN1 260735Z 19014G19KT 19/17 A2995 RMK A01 T01940166  RH  084%=      5-min Rain = 0
KEN1 260736Z 19013KT 19/17 A2995 RMK A01 T01940166  RH  084%=      5-min Rain = 0
KEN1 260737Z 19015KT 19/17 A2995 RMK A01 T01940165  RH  083%=      5-min Rain = 0
KEN1 260738Z 18014KT 19/17 A2995 RMK A01 T01940165  RH  083%=      5-min Rain = 0
KEN1 260739Z 18013KT 20/17 A2995 RMK A01 T01950165  RH  083%=      5-min Rain = 0
KEN1 260740Z 18014G20KT 19/17 A2995 RMK A01 T01940165  RH  083%=      5-min Rain = 0
KEN1 260741Z 19015KT 19/17 A2995 RMK A01 T01940165  RH  083%=      5-min Rain = 0
KEN1 260742Z 18013KT 20/17 A2995 RMK A01 T01950165  RH  083%=      5-min Rain = 0
KEN1 260743Z 18013KT 19/17 A2995 RMK A01 T01940165  RH  083%=      5-min Rain = 0
KEN1 260744Z 18014KT 19/17 A2995 RMK A01 T01940165  RH  083%=      5-min Rain = 0
KEN1 260745Z 18014KT 19/17 A2995 RMK A01 T01940165  RH  083%=      5-min Rain = 0
KEN1 260746Z 18014KT 19/17 A2995 RMK A01 T01940165  RH  083%=      5-min Rain = 0
KEN1 260747Z 18012KT 19/17 A2995 RMK A01 T01940165  RH  083%=      5-min Rain = 0
KEN1 260748Z 19013KT 19/17 A2995 RMK A01 T01930165  RH  084%=      5-min Rain = 0
KEN1 260749Z 18013KT 19/16 A2995 RMK A01 T01920164  RH  084%=      5-min Rain = 0
KEN1 260750Z 18014KT 19/16 A2995 RMK A01 T01920164  RH  084%=      5-min Rain = 0
KEN1 260751Z 18015KT 19/16 A2995 RMK A01 T01920164  RH  084%=      5-min Rain = 0
KEN1 260752Z 18015KT 19/16 A2995 RMK A01 T01920164  RH  084%=      5-min Rain = 0
KEN1 260753Z 18013G18KT 19/16 A2995 RMK A01 T01920164  RH  083%=      5-min Rain = 0
KEN1 260754Z 18013KT 19/16 A2995 RMK A01 T01930164  RH  083%=      5-min Rain = 0
KEN1 260755Z 18014KT 19/16 A2995 RMK A01 T01920164  RH  083%=      5-min Rain = 0
KEN1 260756Z 18013KT 19/16 A2995 RMK A01 T01920164  RH  084%=      5-min Rain = 0
KEN1 260757Z 18012KT 19/16 A2995 RMK A01 T01920164  RH  084%=      5-min Rain = 0
KEN1 260758Z 18012KT 19/16 A2995 RMK A01 T01910164  RH  084%=      5-min Rain = 0
KEN1 260759Z 18011KT 19/16 A2995 RMK A01 T01900163  RH  084%=      5-min Rain = 0
KEN1 260800Z 18012KT 19/16 A2995 RMK A01 T01890163  RH  085%=      5-min Rain = 0
KEN1 260801Z 18013KT 19/16 A2995 RMK A01 T01890164  RH  085%=      5-min Rain = 0
KEN1 260802Z 18012KT 19/16 A2995 RMK A01 T01890163  RH  085%=      5-min Rain = 0
KEN1 260803Z 17011KT 19/16 A2995 RMK A01 T01890163  RH  085%=      5-min Rain = 0
KEN1 260804Z 18012KT 19/16 A2995 RMK A01 T01890164  RH  085%=      5-min Rain = 0
KEN1 260805Z 17011KT 19/16 A2995 RMK A01 T01880163  RH  086%=      5-min Rain = 0
KEN1 260806Z 18011KT 19/16 A2995 RMK A01 T01880163  RH  086%=      5-min Rain = 0
KEN1 260807Z 17013KT 19/16 A2995 RMK A01 T01880163  RH  086%=      5-min Rain = 0
KEN1 260808Z 17012KT 19/16 A2995 RMK A01 T01880163  RH  086%=      5-min Rain = 0
KEN1 260809Z 18013KT 19/16 A2995 RMK A01 T01880163  RH  086%=      5-min Rain = 0
KEN1 260810Z 17012KT 19/16 A2995 RMK A01 T01880163  RH  086%=      5-min Rain = 0
KEN1 260811Z 17013KT 19/16 A2995 RMK A01 T01880163  RH  085%=      5-min Rain = 0
KEN1 260812Z 18013KT 19/16 A2995 RMK A01 T01880162  RH  085%=      5-min Rain = 0
KEN1 260813Z 18012KT 19/16 A2995 RMK A01 T01880163  RH  085%=      5-min Rain = 0
KEN1 260814Z 18012KT 19/16 A2995 RMK A01 T01870163  RH  086%=      5-min Rain = 0
KEN1 260815Z 17011KT 19/16 A2995 RMK A01 T01870163  RH  086%=      5-min Rain = 0
KEN1 260816Z 17012KT 19/16 A2995 RMK A01 T01870163  RH  086%=      5-min Rain = 0
KEN1 260817Z 18012KT 19/16 A2995 RMK A01 T01860162  RH  086%=      5-min Rain = 0
KEN1 260818Z 18012KT 19/16 A2995 RMK A01 T01860163  RH  086%=      5-min Rain = 0
KEN1 260819Z 17013KT 19/16 A2995 RMK A01 T01860163  RH  086%=      5-min Rain = 0
KEN1 260820Z 18013KT 19/16 A2995 RMK A01 T01860163  RH  086%=      5-min Rain = 0
KEN1 260821Z 17012KT 19/16 A2995 RMK A01 T01860162  RH  086%=      5-min Rain = 0
KEN1 260822Z 17012KT 19/16 A2995 RMK A01 T01870162  RH  086%=      5-min Rain = 0
KEN1 260823Z 17013KT 19/16 A2995 RMK A01 T01870162  RH  086%=      5-min Rain = 0
KEN1 260824Z 17012KT 19/16 A2995 RMK A01 T01870162  RH  086%=      5-min Rain = 0
KEN1 260825Z 17012KT 19/16 A2995 RMK A01 T01870162  RH  086%=      5-min Rain = 0
KEN1 260826Z 17013KT 19/16 A2995 RMK A01 T01860162  RH  086%=      5-min Rain = 0
KEN1 260827Z 17011KT 19/16 A2995 RMK A01 T01860162  RH  086%=      5-min Rain = 0
KEN1 260828Z 17012KT 19/16 A2995 RMK A01 T01860162  RH  086%=      5-min Rain = 0
KEN1 260829Z 17011KT 19/16 A2995 RMK A01 T01860162  RH  086%=      5-min Rain = 0
KEN1 260830Z 18013KT 19/16 A2995 RMK A01 T01860162  RH  086%=      5-min Rain = 0
KEN1 260831Z 18011KT 19/16 A2995 RMK A01 T01860161  RH  085%=      5-min Rain = 0
KEN1 260832Z 17012KT 19/16 A2995 RMK A01 T01870161  RH  085%=      5-min Rain = 0
KEN1 260833Z 17011KT 19/16 A2995 RMK A01 T01870162  RH  085%=      5-min Rain = 0
KEN1 260834Z 17011KT 19/16 A2995 RMK A01 T01870162  RH  085%=      5-min Rain = 0
KEN1 260835Z 17013KT 19/16 A2995 RMK A01 T01860161  RH  085%=      5-min Rain = 0
KEN1 260836Z 17011KT 19/16 A2995 RMK A01 T01860161  RH  085%=      5-min Rain = 0
KEN1 260837Z 17012KT 19/16 A2995 RMK A01 T01860161  RH  085%=      5-min Rain = 0
KEN1 260838Z 17013KT 19/16 A2995 RMK A01 T01860161  RH  085%=      5-min Rain = 0
KEN1 260839Z 17012KT 19/16 A2995 RMK A01 T01860161  RH  085%=      5-min Rain = 0
KEN1 260840Z 17011KT 19/16 A2995 RMK A01 T01860161  RH  085%=      5-min Rain = 0
KEN1 260841Z 17012KT 19/16 A2995 RMK A01 T01860161  RH  085%=      5-min Rain = 0
KEN1 260842Z 17012KT 19/16 A2995 RMK A01 T01860160  RH  085%=      5-min Rain = 0
KEN1 260843Z 18011KT 19/16 A2995 RMK A01 T01860160  RH  085%=      5-min Rain = 0
KEN1 260844Z 18012KT 19/16 A2995 RMK A01 T01860160  RH  085%=      5-min Rain = 0
KEN1 260845Z 18014KT 19/16 A2995 RMK A01 T01860160  RH  085%=      5-min Rain = 0
KEN1 260846Z 18012KT 19/16 A2995 RMK A01 T01860160  RH  085%=      5-min Rain = 0
KEN1 260847Z 17012KT 19/16 A2995 RMK A01 T01860160  RH  085%=      5-min Rain = 0
KEN1 260848Z 17013KT 19/16 A2995 RMK A01 T01860160  RH  084%=      5-min Rain = 0
KEN1 260849Z 17012KT 19/16 A2995 RMK A01 T01860159  RH  084%=      5-min Rain = 0
KEN1 260850Z 18012KT 19/16 A2995 RMK A01 T01860160  RH  084%=      5-min Rain = 0
KEN1 260851Z 17012KT 19/16 A2995 RMK A01 T01860160  RH  085%=      5-min Rain = 0
KEN1 260852Z 17013KT 19/16 A2995 RMK A01 T01860160  RH  085%=      5-min Rain = 0
KEN1 260853Z 17012KT 19/16 A2995 RMK A01 T01860159  RH  085%=      5-min Rain = 0
KEN1 260854Z 17012KT 19/16 A2995 RMK A01 T01860159  RH  084%=      5-min Rain = 0
KEN1 260855Z 17011KT 19/16 A2995 RMK A01 T01860159  RH  084%=      5-min Rain = 0
KEN1 260856Z 17011KT 19/16 A2995 RMK A01 T01860159  RH  085%=      5-min Rain = 0
KEN1 260857Z 18010KT 19/16 A2995 RMK A01 T01850159  RH  085%=      5-min Rain = 0
KEN1 260858Z 17010KT 19/16 A2995 RMK A01 T01850159  RH  085%=      5-min Rain = 0
KEN1 260859Z 17010KT 19/16 A2996 RMK A01 T01850159  RH  085%=      5-min Rain = 0
KEN1 260900Z 17010KT 19/16 A2996 RMK A01 T01850159  RH  085%=      5-min Rain = 0
KEN1 260901Z 18010KT 19/16 A2996 RMK A01 T01850159  RH  085%=      5-min Rain = 0
KEN1 260902Z 17010KT 18/16 A2996 RMK A01 T01840158  RH  085%=      5-min Rain = 0
KEN1 260903Z 17008KT 19/16 A2996 RMK A01 T01850159  RH  085%=      5-min Rain = 0
KEN1 260904Z 18009KT 19/16 A2996 RMK A01 T01850158  RH  084%=      5-min Rain = 0
KEN1 260905Z 18006KT 19/16 A2996 RMK A01 T01850158  RH  085%=      5-min Rain = 0
KEN1 260906Z 18006KT 18/16 A2996 RMK A01 T01840158  RH  085%=      5-min Rain = 0
KEN1 260907Z 18005KT 18/16 A2996 RMK A01 T01840158  RH  085%=      5-min Rain = 0
KEN1 260908Z 18005KT 18/16 A2996 RMK A01 T01830158  RH  085%=      5-min Rain = 0
KEN1 260909Z 19004KT 18/16 A2997 RMK A01 T01830158  RH  085%=      5-min Rain = 0
KEN1 260910Z 20004KT 18/16 A2997 RMK A01 T01820157  RH  085%=      5-min Rain = 0
KEN1 260911Z 21003KT 18/16 A2997 RMK A01 T01830158  RH  085%=      5-min Rain = 0
KEN1 260912Z 22002KT 18/16 A2997 RMK A01 T01830158  RH  085%=      5-min Rain = 0
KEN1 260913Z 22002KT 18/16 A2997 RMK A01 T01830158  RH  085%=      5-min Rain = 0
KEN1 260914Z 29002KT 18/16 A2997 RMK A01 T01830158  RH  085%=      5-min Rain = 0
KEN1 260915Z 33004KT 18/16 A2997 RMK A01 T01820157  RH  085%=      5-min Rain = 0
KEN1 260916Z 34004KT 18/16 A2997 RMK A01 T01810157  RH  086%=      5-min Rain = 0
KEN1 260917Z 35004KT 18/16 A2997 RMK A01 T01800156  RH  086%=      5-min Rain = 0
KEN1 260918Z 35004KT 18/16 A2997 RMK A01 T01780156  RH  087%=      5-min Rain = 0
KEN1 260919Z 35004KT 18/16 A2997 RMK A01 T01780157  RH  087%=      5-min Rain = 0
KEN1 260920Z 35004KT 18/16 A2997 RMK A01 T01790157  RH  087%=      5-min Rain = 0
KEN1 260921Z 36004KT 18/16 A2997 RMK A01 T01800157  RH  087%=      5-min Rain = 0
KEN1 260922Z 01005KT 18/16 A2997 RMK A01 T01810158  RH  086%=      5-min Rain = 0
KEN1 260923Z 36006KT 18/16 A2997 RMK A01 T01810157  RH  086%=      5-min Rain = 0
KEN1 260924Z 01005KT 18/16 A2997 RMK A01 T01800156  RH  086%=      5-min Rain = 0
KEN1 260925Z 01005KT 18/16 A2997 RMK A01 T01780156  RH  086%=      5-min Rain = 0
KEN1 260926Z 01006KT 18/16 A2997 RMK A01 T01780155  RH  087%=      5-min Rain = 0
KEN1 260927Z 01006KT 18/16 A2997 RMK A01 T01770155  RH  087%=      5-min Rain = 0
KEN1 260928Z 02007KT 18/16 A2997 RMK A01 T01770155  RH  087%=      5-min Rain = 0
KEN1 260929Z 02007KT 18/15 A2997 RMK A01 T01760154  RH  087%=      5-min Rain = 0
KEN1 260930Z 01007KT 17/15 A2997 RMK A01 T01740154  RH  088%=      5-min Rain = 0
KEN1 260931Z 00006KT 18/16 A2997 RMK A01 T01750156  RH  088%=      5-min Rain = 0
KEN1 260932Z 01007KT 18/16 A2997 RMK A01 T01770155  RH  087%=      5-min Rain = 0
KEN1 260933Z 02006KT 18/16 A2997 RMK A01 T01760155  RH  087%=      5-min Rain = 0
KEN1 260934Z 01005KT 18/15 A2997 RMK A01 T01750154  RH  087%=      5-min Rain = 0
KEN1 260935Z 02004KT 18/15 A2997 RMK A01 T01760154  RH  087%=      5-min Rain = 0
KEN1 260936Z 01002KT 18/16 A2997 RMK A01 T01760155  RH  087%=      5-min Rain = 0
KEN1 260937Z 36003KT 18/16 A2997 RMK A01 T01760155  RH  087%=      5-min Rain = 0
KEN1 260938Z 31003KT 18/16 A2997 RMK A01 T01790156  RH  086%=      5-min Rain = 0
KEN1 260939Z 03002KT 18/16 A2997 RMK A01 T01820157  RH  085%=      5-min Rain = 0
KEN1 260940Z 02002KT 19/16 A2997 RMK A01 T01870157  RH  082%=      5-min Rain = 0
KEN1 260941Z 06002KT 19/16 A2997 RMK A01 T01900157  RH  081%=      5-min Rain = 0
KEN1 260942Z 30002KT 19/16 A2997 RMK A01 T01910156  RH  081%=      5-min Rain = 0
KEN1 260943Z 28004KT 19/16 A2997 RMK A01 T01910156  RH  080%=      5-min Rain = 0
KEN1 260944Z 23005KT 19/16 A2997 RMK A01 T01910156  RH  080%=      5-min Rain = 0
KEN1 260945Z 20004KT 19/16 A2997 RMK A01 T01900156  RH  080%=      5-min Rain = 0
KEN1 260946Z 22005KT 19/16 A2997 RMK A01 T01890155  RH  081%=      5-min Rain = 0
KEN1 260947Z 20005KT 19/16 A2997 RMK A01 T01890155  RH  081%=      5-min Rain = 0
KEN1 260948Z 19004KT 19/16 A2997 RMK A01 T01900155  RH  080%=      5-min Rain = 0
KEN1 260949Z 20005KT 19/16 A2997 RMK A01 T01910155  RH  080%=      5-min Rain = 0
KEN1 260950Z 18007KT 19/16 A2997 RMK A01 T01910155  RH  080%=      5-min Rain = 0
KEN1 260951Z 20007KT 19/16 A2997 RMK A01 T01880155  RH  081%=      5-min Rain = 0
KEN1 260952Z 19005KT 19/16 A2997 RMK A01 T01880155  RH  081%=      5-min Rain = 0
KEN1 260953Z 19005KT 19/16 A2997 RMK A01 T01890155  RH  081%=      5-min Rain = 0
KEN1 260954Z 18007KT 19/16 A2997 RMK A01 T01890155  RH  081%=      5-min Rain = 0
KEN1 260955Z 18007KT 19/16 A2997 RMK A01 T01900155  RH  080%=      5-min Rain = 0
KEN1 260956Z 19010KT 19/16 A2997 RMK A01 T01900156  RH  081%=      5-min Rain = 0
KEN1 260957Z 18009KT 19/16 A2997 RMK A01 T01900156  RH  081%=      5-min Rain = 0
KEN1 260958Z 19008KT 19/16 A2997 RMK A01 T01900156  RH  081%=      5-min Rain = 0
KEN1 260959Z 18007KT 19/16 A2997 RMK A01 T01890156  RH  081%=      5-min Rain = 0
KEN1 261000Z 19008KT 19/16 A2997 RMK A01 T01870155  RH  082%=      5-min Rain = 0
KEN1 261001Z 20009KT 19/16 A2997 RMK A01 T01860155  RH  082%=      5-min Rain = 0
KEN1 261002Z 20009KT 19/16 A2997 RMK A01 T01860155  RH  082%=      5-min Rain = 0
KEN1 261003Z 19012KT 19/16 A2997 RMK A01 T01870155  RH  082%=      5-min Rain = 0
KEN1 261004Z 20013KT 19/16 A2997 RMK A01 T01890156  RH  081%=      5-min Rain = 0
KEN1 261005Z 19010KT 19/16 A2997 RMK A01 T01920156  RH  080%=      5-min Rain = 0
KEN1 261006Z 19010KT 19/16 A2997 RMK A01 T01930156  RH  079%=      5-min Rain = 0
KEN1 261007Z 18011KT 19/16 A2997 RMK A01 T01930156  RH  079%=      5-min Rain = 0
KEN1 261008Z 19009KT 19/16 A2997 RMK A01 T01920156  RH  080%=      5-min Rain = 0
KEN1 261009Z 19008KT 19/16 A2997 RMK A01 T01900156  RH  080%=      5-min Rain = 0
KEN1 261010Z 19007KT 19/16 A2997 RMK A01 T01880156  RH  081%=      5-min Rain = 0
KEN1 261011Z 18008KT 19/16 A2997 RMK A01 T01860155  RH  082%=      5-min Rain = 0
KEN1 261012Z 18011KT 19/16 A2997 RMK A01 T01850155  RH  083%=      5-min Rain = 0
KEN1 261013Z 18008KT 19/16 A2997 RMK A01 T01870155  RH  082%=      5-min Rain = 0
KEN1 261014Z 19009KT 19/16 A2997 RMK A01 T01880155  RH  081%=      5-min Rain = 0
KEN1 261015Z 19007KT 19/16 A2997 RMK A01 T01890155  RH  081%=      5-min Rain = 0
KEN1 261016Z 19009KT 19/16 A2997 RMK A01 T01870155  RH  082%=      5-min Rain = 0
KEN1 261017Z 19009KT 19/16 A2997 RMK A01 T01870155  RH  082%=      5-min Rain = 0
KEN1 261018Z 19009KT 19/16 A2997 RMK A01 T01870155  RH  082%=      5-min Rain = 0
KEN1 261019Z 18008KT 19/16 A2997 RMK A01 T01870155  RH  082%=      5-min Rain = 0
KEN1 261020Z 19007KT 19/16 A2997 RMK A01 T01870155  RH  082%=      5-min Rain = 0
KEN1 261021Z 19006KT 19/16 A2997 RMK A01 T01860155  RH  082%=      5-min Rain = 0
KEN1 261022Z 20005KT 19/16 A2997 RMK A01 T01850155  RH  083%=      5-min Rain = 0
KEN1 261023Z 18006KT 18/16 A2997 RMK A01 T01840155  RH  083%=      5-min Rain = 0
KEN1 261024Z 20006KT 18/16 A2997 RMK A01 T01840155  RH  083%=      5-min Rain = 0
KEN1 261025Z 20005KT 18/16 A2997 RMK A01 T01840155  RH  083%=      5-min Rain = 0
KEN1 261026Z 21004KT 18/16 A2997 RMK A01 T01840155  RH  083%=      5-min Rain = 0
KEN1 261027Z 25002KT 18/15 A2997 RMK A01 T01840154  RH  083%=      5-min Rain = 0
KEN1 261028Z 32002KT 18/15 A2997 RMK A01 T01840154  RH  083%=      5-min Rain = 0
KEN1 261029Z 35003KT 18/15 A2997 RMK A01 T01810153  RH  083%=      5-min Rain = 0
KEN1 261030Z 01004KT 18/15 A2997 RMK A01 T01800153  RH  084%=      5-min Rain = 0
KEN1 261031Z 01004KT 18/15 A2997 RMK A01 T01810153  RH  084%=      5-min Rain = 0
KEN1 261032Z 01002KT 18/15 A2998 RMK A01 T01810153  RH  084%=      5-min Rain = 0
KEN1 261033Z 01004KT 18/15 A2998 RMK A01 T01800152  RH  084%=      5-min Rain = 0
KEN1 261034Z 01005KT 18/15 A2998 RMK A01 T01780151  RH  084%=      5-min Rain = 0
KEN1 261035Z 02005KT 18/15 A2997 RMK A01 T01750149  RH  085%=      5-min Rain = 0
KEN1 261036Z 01005KT 17/15 A2997 RMK A01 T01720148  RH  086%=      5-min Rain = 0
KEN1 261037Z 02005KT 17/15 A2997 RMK A01 T01700148  RH  087%=      5-min Rain = 0
KEN1 261038Z 02006KT 17/15 A2997 RMK A01 T01670147  RH  088%=      5-min Rain = 0
KEN1 261039Z 01006KT 17/15 A2998 RMK A01 T01660148  RH  089%=      5-min Rain = 0
KEN1 261040Z 01007KT 17/15 A2998 RMK A01 T01660149  RH  090%=      5-min Rain = 0
KEN1 261041Z 01007KT 17/15 A2998 RMK A01 T01660149  RH  090%=      5-min Rain = 0
KEN1 261042Z 01007KT 17/15 A2997 RMK A01 T01660149  RH  090%=      5-min Rain = 0
KEN1 261043Z 00006KT 17/15 A2997 RMK A01 T01660150  RH  090%=      5-min Rain = 0
KEN1 261044Z 00006KT 17/15 A2998 RMK A01 T01660149  RH  090%=      5-min Rain = 0
KEN1 261045Z 36006KT 17/15 A2998 RMK A01 T01650149  RH  090%=      5-min Rain = 0
KEN1 261046Z 01005KT 17/15 A2998 RMK A01 T01650149  RH  090%=      5-min Rain = 0
KEN1 261047Z 00004KT 17/15 A2998 RMK A01 T01660150  RH  090%=      5-min Rain = 0
KEN1 261048Z 35004KT 17/15 A2998 RMK A01 T01690152  RH  090%=      5-min Rain = 0
KEN1 261049Z 35004KT 17/15 A2998 RMK A01 T01710152  RH  089%=      5-min Rain = 0
KEN1 261050Z 35005KT 17/15 A2998 RMK A01 T01720152  RH  088%=      5-min Rain = 0
KEN1 261051Z 34005KT 17/15 A2998 RMK A01 T01720151  RH  087%=      5-min Rain = 0
KEN1 261052Z 34004KT 17/15 A2998 RMK A01 T01720152  RH  088%=      5-min Rain = 0
KEN1 261053Z 32004KT 17/15 A2998 RMK A01 T01710152  RH  088%=      5-min Rain = 0
KEN1 261054Z 33005KT 17/15 A2998 RMK A01 T01720152  RH  088%=      5-min Rain = 0
KEN1 261055Z 34004KT 17/15 A2998 RMK A01 T01720152  RH  088%=      5-min Rain = 0
KEN1 261056Z 32002KT 17/15 A2998 RMK A01 T01730152  RH  088%=      5-min Rain = 0
KEN1 261057Z 35000KT 17/15 A2998 RMK A01 T01720150  RH  087%=      5-min Rain = 0
KEN1 261058Z 32001KT 17/15 A2998 RMK A01 T01720149  RH  087%=      5-min Rain = 0
KEN1 261059Z 30002KT 17/15 A2998 RMK A01 T01710149  RH  087%=      5-min Rain = 0
KEN1 261100Z 28001KT 17/15 A2998 RMK A01 T01700150  RH  088%=      5-min Rain = 0
KEN1 261101Z 28001KT 17/15 A2998 RMK A01 T01700151  RH  088%=      5-min Rain = 0
KEN1 261102Z 25001KT 17/15 A2998 RMK A01 T01710151  RH  088%=      5-min Rain = 0
KEN1 261103Z 19001KT 17/15 A2998 RMK A01 T01720150  RH  087%=      5-min Rain = 0
KEN1 261104Z 16003KT 17/15 A2997 RMK A01 T01730151  RH  087%=      5-min Rain = 0
KEN1 261105Z 16006KT 18/16 A2997 RMK A01 T01770155  RH  087%=      5-min Rain = 0
KEN1 261106Z 16009KT 18/16 A2997 RMK A01 T01840158  RH  085%=      5-min Rain = 0
KEN1 261107Z 17006KT 19/16 A2998 RMK A01 T01880159  RH  083%=      5-min Rain = 0
KEN1 261108Z 20004KT 19/16 A2998 RMK A01 T01890158  RH  082%=      5-min Rain = 0
KEN1 261109Z 22003KT 19/16 A2997 RMK A01 T01880157  RH  082%=      5-min Rain = 0
KEN1 261110Z 22003KT 19/16 A2997 RMK A01 T01880155  RH  081%=      5-min Rain = 0
KEN1 261111Z 16004KT 19/16 A2997 RMK A01 T01890155  RH  081%=      5-min Rain = 0
KEN1 261112Z 14003KT 19/16 A2997 RMK A01 T01890156  RH  081%=      5-min Rain = 0
KEN1 261113Z 15004KT 19/16 A2997 RMK A01 T01900156  RH  080%=      5-min Rain = 0
KEN1 261114Z 16005KT 19/16 A2998 RMK A01 T01890156  RH  081%=      5-min Rain = 0
KEN1 261115Z 16006KT 19/16 A2998 RMK A01 T01880156  RH  081%=      5-min Rain = 0
KEN1 261116Z 15006KT 19/16 A2998 RMK A01 T01860155  RH  082%=      5-min Rain = 0
KEN1 261117Z 14007KT 18/16 A2998 RMK A01 T01840155  RH  083%=      5-min Rain = 0
KEN1 261118Z 15008KT 18/16 A2998 RMK A01 T01830156  RH  084%=      5-min Rain = 0
KEN1 261119Z 16006KT 18/16 A2998 RMK A01 T01830156  RH  084%=      5-min Rain = 0
KEN1 261120Z 14005KT 18/16 A2998 RMK A01 T01840155  RH  084%=      5-min Rain = 0
KEN1 261121Z 14006KT 18/16 A2998 RMK A01 T01830155  RH  084%=      5-min Rain = 0
KEN1 261122Z 14008KT 18/16 A2998 RMK A01 T01820155  RH  085%=      5-min Rain = 0
KEN1 261123Z 14008KT 18/16 A2998 RMK A01 T01810156  RH  085%=      5-min Rain = 0
KEN1 261124Z 14009KT 18/16 A2998 RMK A01 T01800156  RH  086%=      5-min Rain = 0
KEN1 261125Z 14009KT 18/16 A2998 RMK A01 T01790156  RH  086%=      5-min Rain = 0
KEN1 261126Z 15009KT 18/16 A2998 RMK A01 T01800156  RH  086%=      5-min Rain = 0
KEN1 261127Z 15009KT 18/16 A2998 RMK A01 T01800156  RH  086%=      5-min Rain = 0
KEN1 261128Z 15009KT 18/16 A2998 RMK A01 T01810156  RH  086%=      5-min Rain = 0
KEN1 261129Z 15009KT 18/16 A2998 RMK A01 T01810156  RH  085%=      5-min Rain = 0
KEN1 261130Z 15009KT 18/16 A2998 RMK A01 T01810157  RH  086%=      5-min Rain = 0
KEN1 261131Z 15009KT 18/16 A2998 RMK A01 T01810157  RH  086%=      5-min Rain = 0
KEN1 261132Z 16008KT 18/16 A2998 RMK A01 T01810156  RH  085%=      5-min Rain = 0
KEN1 261133Z 16008KT 18/16 A2998 RMK A01 T01810156  RH  085%=      5-min Rain = 0
KEN1 261134Z 16009KT 18/16 A2998 RMK A01 T01810157  RH  085%=      5-min Rain = 0
KEN1 261135Z 16009KT 18/16 A2998 RMK A01 T01820157  RH  085%=      5-min Rain = 0
KEN1 261136Z 16010KT 18/16 A2998 RMK A01 T01820157  RH  085%=      5-min Rain = 0
KEN1 261137Z 16008KT 18/16 A2998 RMK A01 T01830157  RH  085%=      5-min Rain = 0
KEN1 261138Z 17008KT 18/16 A2998 RMK A01 T01840157  RH  084%=      5-min Rain = 0
KEN1 261139Z 16007KT 19/16 A2998 RMK A01 T01850157  RH  084%=      5-min Rain = 0
KEN1 261140Z 17007KT 19/16 A2998 RMK A01 T01850157  RH  084%=      5-min Rain = 0
KEN1 261141Z 17007KT 19/16 A2998 RMK A01 T01850157  RH  084%=      5-min Rain = 0
KEN1 261142Z 17008KT 19/16 A2998 RMK A01 T01850158  RH  084%=      5-min Rain = 0
KEN1 261143Z 16007KT 19/16 A2998 RMK A01 T01850158  RH  084%=      5-min Rain = 0
KEN1 261144Z 15007KT 19/16 A2998 RMK A01 T01850158  RH  084%=      5-min Rain = 0
KEN1 261145Z 15007KT 18/16 A2998 RMK A01 T01840158  RH  084%=      5-min Rain = 0
KEN1 261146Z 15007KT 18/16 A2998 RMK A01 T01830157  RH  085%=      5-min Rain = 0
KEN1 261147Z 14007KT 18/16 A2998 RMK A01 T01820157  RH  085%=      5-min Rain = 0
KEN1 261148Z 15007KT 18/16 A2998 RMK A01 T01800156  RH  086%=      5-min Rain = 0
KEN1 261149Z 14006KT 18/16 A2998 RMK A01 T01790157  RH  087%=      5-min Rain = 0
KEN1 261150Z 14006KT 18/16 A2998 RMK A01 T01780157  RH  087%=      5-min Rain = 0
KEN1 261151Z 13005KT 18/16 A2998 RMK A01 T01780157  RH  087%=      5-min Rain = 0
KEN1 261152Z 14005KT 18/16 A2998 RMK A01 T01770156  RH  087%=      5-min Rain = 0
KEN1 261153Z 14005KT 18/16 A2998 RMK A01 T01760156  RH  088%=      5-min Rain = 0
KEN1 261154Z 13005KT 18/16 A2998 RMK A01 T01760156  RH  088%=      5-min Rain = 0
KEN1 261155Z 12004KT 18/16 A2998 RMK A01 T01760156  RH  088%=      5-min Rain = 0
KEN1 261156Z 12004KT 18/16 A2998 RMK A01 T01760156  RH  088%=      5-min Rain = 0
KEN1 261157Z 12005KT 17/16 A2998 RMK A01 T01740155  RH  088%=      5-min Rain = 0
KEN1 261158Z 12004KT 17/16 A2998 RMK A01 T01740155  RH  089%=      5-min Rain = 0
KEN1 261159Z 11004KT 17/16 A2998 RMK A01 T01730155  RH  089%=      5-min Rain = 0
KEN1 261200Z 11004KT 17/16 A2998 RMK A01 T01730155  RH  089%=      5-min Rain = 0
KEN1 261201Z 10004KT 17/16 A2999 RMK A01 T01730155  RH  089%=      5-min Rain = 0
KEN1 261202Z 08003KT 17/15 A2999 RMK A01 T01720154  RH  089%=      5-min Rain = 0
KEN1 261203Z 06004KT 17/15 A2999 RMK A01 T01710153  RH  089%=      5-min Rain = 0
KEN1 261204Z 06005KT 17/15 A2999 RMK A01 T01700152  RH  090%=      5-min Rain = 0
KEN1 261205Z 06004KT 17/15 A2999 RMK A01 T01680152  RH  090%=      5-min Rain = 0
KEN1 261206Z 09005KT 17/15 A2999 RMK A01 T01670152  RH  091%=      5-min Rain = 0
KEN1 261207Z 12006KT 17/15 A2999 RMK A01 T01670153  RH  092%=      5-min Rain = 0
KEN1 261208Z 12005KT 17/16 A2999 RMK A01 T01680155  RH  092%=      5-min Rain = 0
KEN1 261209Z 13006KT 17/16 A2999 RMK A01 T01710159  RH  092%=      5-min Rain = 0
KEN1 261210Z 13007KT 17/16 A2999 RMK A01 T01730160  RH  092%=      5-min Rain = 0
KEN1 261211Z 13007KT 18/16 A2999 RMK A01 T01760161  RH  091%=      5-min Rain = 0
KEN1 261212Z 13007KT 18/16 A2999 RMK A01 T01780161  RH  090%=      5-min Rain = 0
KEN1 261213Z 14008KT 18/16 A2999 RMK A01 T01790161  RH  089%=      5-min Rain = 0
KEN1 261214Z 14008KT 18/16 A2999 RMK A01 T01810161  RH  088%=      5-min Rain = 0
KEN1 261215Z 15008KT 18/16 A2999 RMK A01 T01830162  RH  088%=      5-min Rain = 0
KEN1 261216Z 15009KT 18/16 A2999 RMK A01 T01840162  RH  087%=      5-min Rain = 0
KEN1 261217Z 16008KT 19/16 A2999 RMK A01 T01850162  RH  086%=      5-min Rain = 0
KEN1 261218Z 16009KT 19/16 A2999 RMK A01 T01850162  RH  086%=      5-min Rain = 0
KEN1 261219Z 15008KT 19/16 A2999 RMK A01 T01860162  RH  086%=      5-min Rain = 0
KEN1 261220Z 14007KT 19/16 A2999 RMK A01 T01870162  RH  086%=      5-min Rain = 0
KEN1 261221Z 15007KT 19/16 A2999 RMK A01 T01870163  RH  086%=      5-min Rain = 0
KEN1 261222Z 15007KT 19/16 A2999 RMK A01 T01870162  RH  086%=      5-min Rain = 0
KEN1 261223Z 14006KT 19/16 A2999 RMK A01 T01870163  RH  086%=      5-min Rain = 0
KEN1 261224Z 14007KT 19/16 A2999 RMK A01 T01870163  RH  086%=      5-min Rain = 0
KEN1 261225Z 15006KT 19/16 A2999 RMK A01 T01870163  RH  086%=      5-min Rain = 0
KEN1 261226Z 14005KT 19/16 A2999 RMK A01 T01870162  RH  086%=      5-min Rain = 0
KEN1 261227Z 15006KT 19/16 A2999 RMK A01 T01860163  RH  086%=      5-min Rain = 0
KEN1 261228Z 15006KT 19/16 A2999 RMK A01 T01860163  RH  086%=      5-min Rain = 0
KEN1 261229Z 14006KT 19/16 A2999 RMK A01 T01860162  RH  086%=      5-min Rain = 0
KEN1 261230Z 14006KT 19/16 A2999 RMK A01 T01860162  RH  086%=      5-min Rain = 0
KEN1 261231Z 14006KT 19/16 A30 RMK A01 T01860162  RH  086%=      5-min Rain = 0
KEN1 261232Z 15005KT 19/16 A30 RMK A01 T01860162  RH  086%=      5-min Rain = 0
KEN1 261233Z 15005KT 19/16 A30 RMK A01 T01860163  RH  086%=      5-min Rain = 0
KEN1 261234Z 15004KT 19/16 A30 RMK A01 T01860163  RH  086%=      5-min Rain = 0
KEN1 261235Z 15006KT 19/16 A30 RMK A01 T01860163  RH  087%=      5-min Rain = 0
KEN1 261236Z 15005KT 19/16 A30 RMK A01 T01860163  RH  087%=      5-min Rain = 0
KEN1 261237Z 17006KT 19/16 A30 RMK A01 T01860164  RH  087%=      5-min Rain = 0
KEN1 261238Z 17007KT 19/16 A30 RMK A01 T01860163  RH  087%=      5-min Rain = 0
KEN1 261239Z 16005KT 19/16 A30 RMK A01 T01870163  RH  086%=      5-min Rain = 0
KEN1 261240Z 15006KT 19/16 A30 RMK A01 T01870164  RH  087%=      5-min Rain = 0
KEN1 261241Z 15006KT 19/16 A30 RMK A01 T01870164  RH  086%=      5-min Rain = 0
KEN1 261242Z 15008KT 19/16 A30 RMK A01 T01870164  RH  086%=      5-min Rain = 0
KEN1 261243Z 15007KT 19/16 A30 RMK A01 T01860163  RH  087%=      5-min Rain = 0
KEN1 261244Z 15008KT 19/16 A30 RMK A01 T01850163  RH  087%=      5-min Rain = 0
KEN1 261245Z 15008KT 19/16 A30 RMK A01 T01850163  RH  087%=      5-min Rain = 0
KEN1 261246Z 16008KT 18/16 A30 RMK A01 T01840163  RH  088%=      5-min Rain = 0
KEN1 261247Z 15008KT 18/16 A30 RMK A01 T01840163  RH  088%=      5-min Rain = 0
KEN1 261248Z 15008KT 18/16 A30 RMK A01 T01840164  RH  088%=      5-min Rain = 0
KEN1 261249Z 16008KT 19/16 A30 RMK A01 T01850164  RH  088%=      5-min Rain = 0
KEN1 261250Z 16008KT 19/16 A30 RMK A01 T01850164  RH  088%=      5-min Rain = 0
KEN1 261251Z 17008KT 19/16 A30 RMK A01 T01850164  RH  087%=      5-min Rain = 0
KEN1 261252Z 16007KT 19/16 A30 RMK A01 T01860164  RH  087%=      5-min Rain = 0
KEN1 261253Z 16008KT 19/16 A30 RMK A01 T01860164  RH  087%=      5-min Rain = 0
KEN1 261254Z 16008KT 19/17 A30 RMK A01 T01860165  RH  087%=      5-min Rain = 0
KEN1 261255Z 16008KT 19/17 A30 RMK A01 T01870165  RH  087%=      5-min Rain = 0
KEN1 261256Z 16007KT 19/17 A30 RMK A01 T01870165  RH  087%=      5-min Rain = 0
KEN1 261257Z 16006KT 19/17 A30 RMK A01 T01870165  RH  087%=      5-min Rain = 0
KEN1 261258Z 15006KT 19/17 A30 RMK A01 T01870166  RH  087%=      5-min Rain = 0
KEN1 261259Z 16007KT 19/17 A30 RMK A01 T01870165  RH  087%=      5-min Rain = 0
KEN1 261300Z 16006KT 19/17 A30 RMK A01 T01870165  RH  087%=      5-min Rain = 0
KEN1 261301Z 16005KT 19/16 A30 RMK A01 T01870164  RH  087%=      5-min Rain = 0
KEN1 261302Z 17005KT 19/16 A30 RMK A01 T01870164  RH  086%=      5-min Rain = 0
KEN1 261303Z 17003KT 19/17 A30 RMK A01 T01870165  RH  087%=      5-min Rain = 0
KEN1 261304Z 17003KT 19/17 A30 RMK A01 T01880165  RH  087%=      5-min Rain = 0
KEN1 261305Z 16003KT 19/17 A3001 RMK A01 T01890166  RH  086%=      5-min Rain = 0
KEN1 261306Z 15004KT 19/17 A3001 RMK A01 T01890166  RH  086%=      5-min Rain = 0
KEN1 261307Z 14003KT 19/17 A3001 RMK A01 T01890166  RH  086%=      5-min Rain = 0
KEN1 261308Z 14002KT 19/17 A3001 RMK A01 T01890165  RH  086%=      5-min Rain = 0
KEN1 261309Z 14002KT 19/17 A3001 RMK A01 T01880166  RH  087%=      5-min Rain = 0
KEN1 261310Z 12003KT 19/17 A3001 RMK A01 T01890165  RH  086%=      5-min Rain = 0
KEN1 261311Z 18004KT 19/17 A3001 RMK A01 T01890165  RH  086%=      5-min Rain = 0
KEN1 261312Z 19004KT 19/17 A3001 RMK A01 T01900165  RH  086%=      5-min Rain = 0
KEN1 261313Z 25002KT 19/17 A30 RMK A01 T01900165  RH  085%=      5-min Rain = 0
KEN1 261314Z 19001KT 19/17 A30 RMK A01 T01910165  RH  085%=      5-min Rain = 0
KEN1 261315Z 17000KT 19/17 A30 RMK A01 T01910165  RH  085%=      5-min Rain = 0
KEN1 261316Z 09000KT 19/17 A30 RMK A01 T01920165  RH  084%=      5-min Rain = 0
KEN1 261317Z 11001KT 19/17 A30 RMK A01 T01920165  RH  084%=      5-min Rain = 0
KEN1 261318Z 13001KT 19/17 A30 RMK A01 T01920166  RH  085%=      5-min Rain = 0
KEN1 261319Z 18001KT 19/16 A30 RMK A01 T01920164  RH  084%=      5-min Rain = 0
KEN1 261320Z 17001KT 19/16 A30 RMK A01 T01930164  RH  084%=      5-min Rain = 0
KEN1 261321Z 19000KT 19/17 A30 RMK A01 T01930165  RH  084%=      5-min Rain = 0
KEN1 261322Z 13002KT 19/17 A30 RMK A01 T01930165  RH  084%=      5-min Rain = 0
KEN1 261323Z 14003KT 19/17 A30 RMK A01 T01940165  RH  084%=      5-min Rain = 0
KEN1 261324Z 12002KT 19/17 A30 RMK A01 T01940165  RH  083%=      5-min Rain = 0
KEN1 261325Z 12002KT 19/17 A30 RMK A01 T01940166  RH  084%=      5-min Rain = 0
KEN1 261326Z 09003KT 19/17 A3001 RMK A01 T01940166  RH  084%=      5-min Rain = 0
KEN1 261327Z 08002KT 19/17 A3001 RMK A01 T01940167  RH  084%=      5-min Rain = 0
KEN1 261328Z 08002KT 19/17 A3001 RMK A01 T01940166  RH  084%=      5-min Rain = 0
KEN1 261329Z 07003KT 19/17 A3001 RMK A01 T01940166  RH  084%=      5-min Rain = 0
KEN1 261330Z 06002KT 19/17 A3001 RMK A01 T01940166  RH  084%=      5-min Rain = 0
KEN1 261331Z 07002KT 19/17 A3001 RMK A01 T01940167  RH  084%=      5-min Rain = 0
KEN1 261332Z 07003KT 19/17 A3001 RMK A01 T01940167  RH  084%=      5-min Rain = 0
KEN1 261333Z 08004KT 19/17 A3001 RMK A01 T01940167  RH  084%=      5-min Rain = 0
KEN1 261334Z 06004KT 19/17 A3001 RMK A01 T01940167  RH  084%=      5-min Rain = 0
KEN1 261335Z 09004KT 19/17 A3001 RMK A01 T01940167  RH  085%=      5-min Rain = 0
KEN1 261336Z 08004KT 19/17 A3001 RMK A01 T01940168  RH  085%=      5-min Rain = 0
KEN1 261337Z 09005KT 19/17 A3001 RMK A01 T01940168  RH  085%=      5-min Rain = 0
KEN1 261338Z 10004KT 19/17 A3001 RMK A01 T01940168  RH  085%=      5-min Rain = 0
KEN1 261339Z 09003KT 19/17 A3001 RMK A01 T01940168  RH  085%=      5-min Rain = 0
KEN1 261340Z 07004KT 19/17 A3001 RMK A01 T01940168  RH  085%=      5-min Rain = 0
KEN1 261341Z 08003KT 19/17 A3001 RMK A01 T01930169  RH  086%=      5-min Rain = 0
KEN1 261342Z 07002KT 19/17 A3001 RMK A01 T01930168  RH  085%=      5-min Rain = 0
KEN1 261343Z 06003KT 19/17 A3001 RMK A01 T01930168  RH  086%=      5-min Rain = 0
KEN1 261344Z 07002KT 19/17 A3001 RMK A01 T01930168  RH  086%=      5-min Rain = 0
KEN1 261345Z 12001KT 19/17 A3001 RMK A01 T01930168  RH  086%=      5-min Rain = 0
KEN1 261346Z 13002KT 19/17 A3001 RMK A01 T01930168  RH  085%=      5-min Rain = 0
KEN1 261347Z 14003KT 19/17 A3001 RMK A01 T01940169  RH  086%=      5-min Rain = 0
KEN1 261348Z 14005KT 19/17 A3001 RMK A01 T01940169  RH  085%=      5-min Rain = 0
KEN1 261349Z 13003KT 20/17 A3001 RMK A01 T01950168  RH  084%=      5-min Rain = 0
KEN1 261350Z 14002KT 20/17 A3001 RMK A01 T01960168  RH  084%=      5-min Rain = 0
KEN1 261351Z 11003KT 20/17 A3001 RMK A01 T01960169  RH  084%=      5-min Rain = 0
KEN1 261352Z 12004KT 20/17 A3001 RMK A01 T01960169  RH  084%=      5-min Rain = 0
KEN1 261353Z 10006KT 20/17 A3001 RMK A01 T01960170  RH  085%=      5-min Rain = 0
KEN1 261354Z 09006KT 20/17 A3001 RMK A01 T01960170  RH  085%=      5-min Rain = 0
KEN1 261355Z 09005KT 20/17 A3001 RMK A01 T01960170  RH  085%=      5-min Rain = 0
KEN1 261356Z 09005KT 20/17 A3001 RMK A01 T01950170  RH  085%=      5-min Rain = 0
KEN1 261357Z 09005KT 20/17 A3001 RMK A01 T01950169  RH  085%=      5-min Rain = 0
KEN1 261358Z 09005KT 19/17 A3001 RMK A01 T01940169  RH  085%=      5-min Rain = 0
KEN1 261359Z 10005KT 19/17 A3001 RMK A01 T01940169  RH  085%=      5-min Rain = 0
KEN1 261400Z 10004KT 19/17 A3001 RMK A01 T01940170  RH  086%=      5-min Rain = 0
KEN1 261401Z 10004KT 19/17 A3001 RMK A01 T01940169  RH  086%=      5-min Rain = 0
KEN1 261402Z 10004KT 19/17 A3001 RMK A01 T01940169  RH  086%=      5-min Rain = 0
KEN1 261403Z 10004KT 19/17 A3001 RMK A01 T01930169  RH  086%=      5-min Rain = 0
KEN1 261404Z 10005KT 19/17 A3001 RMK A01 T01940169  RH  086%=      5-min Rain = 0
KEN1 261405Z 10005KT 19/17 A3001 RMK A01 T01940169  RH  085%=      5-min Rain = 0
KEN1 261406Z 10005KT 19/17 A3001 RMK A01 T01940168  RH  085%=      5-min Rain = 0
KEN1 261407Z 11005KT 19/17 A3001 RMK A01 T01940169  RH  086%=      5-min Rain = 0
KEN1 261408Z 12004KT 19/17 A3001 RMK A01 T01940170  RH  086%=      5-min Rain = 0
KEN1 261409Z 11006KT 19/17 A3001 RMK A01 T01940170  RH  086%=      5-min Rain = 0
KEN1 261410Z 11006KT 19/17 A3001 RMK A01 T01940169  RH  086%=      5-min Rain = 0
KEN1 261411Z 11007KT 19/17 A3001 RMK A01 T01940170  RH  086%=      5-min Rain = 0
KEN1 261412Z 11006KT 19/17 A3001 RMK A01 T01940170  RH  086%=      5-min Rain = 0
KEN1 261413Z 12006KT 19/17 A3001 RMK A01 T01940170  RH  086%=      5-min Rain = 0
KEN1 261414Z 12007KT 19/17 A3001 RMK A01 T01940170  RH  086%=      5-min Rain = 0
KEN1 261415Z 12007KT 19/17 A3001 RMK A01 T01940170  RH  086%=      5-min Rain = 0
KEN1 261416Z 12007KT 19/17 A3001 RMK A01 T01940170  RH  086%=      5-min Rain = 0
KEN1 261417Z 12006KT 19/17 A3001 RMK A01 T01940170  RH  086%=      5-min Rain = 0
KEN1 261418Z 13006KT 19/17 A3001 RMK A01 T01940170  RH  086%=      5-min Rain = 0
KEN1 261419Z 13006KT 19/17 A3001 RMK A01 T01940170  RH  086%=      5-min Rain = 0
KEN1 261420Z 13007KT 19/17 A3001 RMK A01 T01940170  RH  086%=      5-min Rain = 0
KEN1 261421Z 13006KT 20/17 A3001 RMK A01 T01950170  RH  086%=      5-min Rain = 0
KEN1 261422Z 13006KT 20/17 A3001 RMK A01 T01950171  RH  086%=      5-min Rain = 0
KEN1 261423Z 13005KT 20/17 A3001 RMK A01 T01950170  RH  085%=      5-min Rain = 0
KEN1 261424Z 14005KT 20/17 A3001 RMK A01 T01960171  RH  086%=      5-min Rain = 0
KEN1 261425Z 13006KT 20/17 A3001 RMK A01 T01960172  RH  086%=      5-min Rain = 0
KEN1 261426Z 14007KT 20/17 A3001 RMK A01 T01960172  RH  086%=      5-min Rain = 0
KEN1 261427Z 13006KT 20/17 A3001 RMK A01 T01970171  RH  085%=      5-min Rain = 0
KEN1 261428Z 15007KT 20/17 A3001 RMK A01 T01970171  RH  085%=      5-min Rain = 0
KEN1 261429Z 16007KT 20/17 A3001 RMK A01 T01970170  RH  084%=      5-min Rain = 0
KEN1 261430Z 15006KT 20/17 A3001 RMK A01 T01980170  RH  084%=      5-min Rain = 0
KEN1 261431Z 15006KT 20/17 A3001 RMK A01 T01980171  RH  084%=      5-min Rain = 0
KEN1 261432Z 14006KT 20/17 A3001 RMK A01 T01980171  RH  084%=      5-min Rain = 0
KEN1 261433Z 15006KT 20/17 A3001 RMK A01 T01990172  RH  085%=      5-min Rain = 0
KEN1 261434Z 14006KT 20/17 A3001 RMK A01 T01990171  RH  084%=      5-min Rain = 0
KEN1 261435Z 15007KT 20/17 A3001 RMK A01 T01980172  RH  084%=      5-min Rain = 0
KEN1 261436Z 14007KT 20/17 A3001 RMK A01 T01990172  RH  084%=      5-min Rain = 0
KEN1 261437Z 15008KT 20/17 A3001 RMK A01 T01990171  RH  084%=      5-min Rain = 0
KEN1 261438Z 16008KT 20/17 A3001 RMK A01 T01990171  RH  084%=      5-min Rain = 0
KEN1 261439Z 16006KT 20/17 A3001 RMK A01 T01990172  RH  084%=      5-min Rain = 0
KEN1 261440Z 17006KT 20/17 A3001 RMK A01 T01990172  RH  085%=      5-min Rain = 0
KEN1 261441Z 16007KT 20/17 A3001 RMK A01 T01990172  RH  084%=      5-min Rain = 0
KEN1 261442Z 16007KT 20/17 A3001 RMK A01 T01990171  RH  084%=      5-min Rain = 0
KEN1 261443Z 16006KT 20/17 A3001 RMK A01 T02000171  RH  083%=      5-min Rain = 0
KEN1 261444Z 17007KT 20/17 A3001 RMK A01 T02000172  RH  084%=      5-min Rain = 0
KEN1 261445Z 17008KT 20/17 A3001 RMK A01 T02000172  RH  084%=      5-min Rain = 0
KEN1 261446Z 17008KT 20/17 A3001 RMK A01 T02000171  RH  083%=      5-min Rain = 0
KEN1 261447Z 17008KT 20/17 A3001 RMK A01 T02000172  RH  084%=      5-min Rain = 0
KEN1 261448Z 18011KT 20/17 A3001 RMK A01 T02000171  RH  083%=      5-min Rain = 0
KEN1 261449Z 18011KT 20/17 A3001 RMK A01 T02000171  RH  083%=      5-min Rain = 0
KEN1 261450Z 18011KT 20/17 A3001 RMK A01 T02000171  RH  083%=      5-min Rain = 0
KEN1 261451Z 18011KT 20/17 A3001 RMK A01 T02010171  RH  083%=      5-min Rain = 0
KEN1 261452Z 18012KT 20/17 A3001 RMK A01 T02010171  RH  083%=      5-min Rain = 0
KEN1 261453Z 17010KT 20/17 A3001 RMK A01 T02020172  RH  083%=      5-min Rain = 0
KEN1 261454Z 18009KT 20/17 A3001 RMK A01 T02020172  RH  083%=      5-min Rain = 0
KEN1 261455Z 18008KT 20/17 A3001 RMK A01 T02020172  RH  083%=      5-min Rain = 0
KEN1 261456Z 18007KT 20/17 A3001 RMK A01 T02020172  RH  083%=      5-min Rain = 0
KEN1 261457Z 17008KT 20/17 A3001 RMK A01 T02020172  RH  083%=      5-min Rain = 0
KEN1 261458Z 17009KT 20/17 A3001 RMK A01 T02020173  RH  083%=      5-min Rain = 0
KEN1 261459Z 16011KT 20/17 A3001 RMK A01 T02020172  RH  083%=      5-min Rain = 0
KEN1 261500Z 19012KT 20/17 A3001 RMK A01 T02020172  RH  083%=      5-min Rain = 0
KEN1 261501Z 18010KT 20/17 A3001 RMK A01 T02020171  RH  082%=      5-min Rain = 0
KEN1 261502Z 18010KT 20/17 A3001 RMK A01 T02020172  RH  083%=      5-min Rain = 0
KEN1 261503Z 17011KT 20/17 A3001 RMK A01 T02020172  RH  083%=      5-min Rain = 0
KEN1 261504Z 16011KT 20/17 A3001 RMK A01 T02020171  RH  083%=      5-min Rain = 0
KEN1 261505Z 16011KT 20/17 A3001 RMK A01 T02020172  RH  083%=      5-min Rain = 0
KEN1 261506Z 18010KT 20/17 A3001 RMK A01 T02020173  RH  083%=      5-min Rain = 0
KEN1 261507Z 18008KT 20/17 A3001 RMK A01 T02010172  RH  083%=      5-min Rain = 0
KEN1 261508Z 17010KT 20/17 A3001 RMK A01 T02010173  RH  084%=      5-min Rain = 0
KEN1 261509Z 19009KT 20/17 A3001 RMK A01 T02010172  RH  083%=      5-min Rain = 0
KEN1 261510Z 17011KT 20/17 A3001 RMK A01 T02010172  RH  083%=      5-min Rain = 0
KEN1 261511Z 17010KT 20/17 A3001 RMK A01 T02010172  RH  083%=      5-min Rain = 0
KEN1 261512Z 16011KT 20/17 A3001 RMK A01 T02010172  RH  083%=      5-min Rain = 0
KEN1 261513Z 17011KT 20/17 A3001 RMK A01 T02010172  RH  083%=      5-min Rain = 0
KEN1 261514Z 17010KT 20/17 A3001 RMK A01 T02010171  RH  083%=      5-min Rain = 0
KEN1 261515Z 18010KT 20/17 A3001 RMK A01 T02010172  RH  083%=      5-min Rain = 0
KEN1 261516Z 18008KT 20/17 A3001 RMK A01 T02010172  RH  083%=      5-min Rain = 0
KEN1 261517Z 18007KT 20/17 A3001 RMK A01 T02010173  RH  084%=      5-min Rain = 0
KEN1 261518Z 17007KT 20/17 A3001 RMK A01 T02010173  RH  084%=      5-min Rain = 0
KEN1 261519Z 18008KT 20/17 A3001 RMK A01 T02010174  RH  084%=      5-min Rain = 0
KEN1 261520Z 18009KT 20/17 A3001 RMK A01 T02010173  RH  084%=      5-min Rain = 0
KEN1 261521Z 18011KT 20/17 A3001 RMK A01 T02010173  RH  084%=      5-min Rain = 0
KEN1 261522Z 18011KT 20/17 A3001 RMK A01 T02010172  RH  083%=      5-min Rain = 0
KEN1 261523Z 18010KT 20/17 A3001 RMK A01 T02010172  RH  083%=      5-min Rain = 0
KEN1 261524Z 18009KT 20/17 A3001 RMK A01 T02010173  RH  084%=      5-min Rain = 0
KEN1 261525Z 19008KT 20/17 A3001 RMK A01 T02010173  RH  084%=      5-min Rain = 0
KEN1 261526Z 18009KT 20/17 A3001 RMK A01 T02010173  RH  084%=      5-min Rain = 0
KEN1 261527Z 17009KT 20/17 A3001 RMK A01 T02010173  RH  084%=      5-min Rain = 0
KEN1 261528Z 17008KT 20/17 A3001 RMK A01 T02010173  RH  084%=      5-min Rain = 0
KEN1 261529Z 18012KT 20/17 A3001 RMK A01 T02010173  RH  084%=      5-min Rain = 0
KEN1 261530Z 17011KT 20/17 A3001 RMK A01 T02010173  RH  084%=      5-min Rain = 0
KEN1 261531Z 17012KT 20/17 A3001 RMK A01 T02010173  RH  084%=      5-min Rain = 0
KEN1 261532Z 17011KT 20/17 A3001 RMK A01 T02010173  RH  084%=      5-min Rain = 0
KEN1 261533Z 17010KT 20/17 A3001 RMK A01 T02010173  RH  084%=      5-min Rain = 0
KEN1 261534Z 17012KT 20/17 A3001 RMK A01 T02010173  RH  084%=      5-min Rain = 0
KEN1 261535Z 17013KT 20/17 A3001 RMK A01 T02010172  RH  084%=      5-min Rain = 0
KEN1 261536Z 17011KT 20/17 A3001 RMK A01 T02000171  RH  083%=      5-min Rain = 0
KEN1 261537Z 18010KT 20/17 A3001 RMK A01 T02010172  RH  084%=      5-min Rain = 0
KEN1 261538Z 17010KT 20/17 A3001 RMK A01 T02010172  RH  084%=      5-min Rain = 0
KEN1 261539Z 17012KT 20/17 A3001 RMK A01 T02010172  RH  084%=      5-min Rain = 0
KEN1 261540Z 17014KT 20/17 A3001 RMK A01 T02000172  RH  084%=      5-min Rain = 0
KEN1 261541Z 17013KT 20/17 A3001 RMK A01 T02010171  RH  083%=      5-min Rain = 0
KEN1 261542Z 18011KT 20/17 A3001 RMK A01 T02010171  RH  083%=      5-min Rain = 0
KEN1 261543Z 17010KT 20/17 A3001 RMK A01 T02000172  RH  083%=      5-min Rain = 0
KEN1 261544Z 17010KT 20/17 A3001 RMK A01 T02010172  RH  084%=      5-min Rain = 0
KEN1 261545Z 17010KT 20/17 A3001 RMK A01 T02010173  RH  084%=      5-min Rain = 0
KEN1 261546Z 17011KT 20/17 A3001 RMK A01 T02010172  RH  083%=      5-min Rain = 0
KEN1 261547Z 17010KT 20/17 A3001 RMK A01 T02010172  RH  083%=      5-min Rain = 0
KEN1 261548Z 17011KT 20/17 A3001 RMK A01 T02010172  RH  084%=      5-min Rain = 0
KEN1 261549Z 18010KT 20/17 A3001 RMK A01 T02010172  RH  083%=      5-min Rain = 0
KEN1 261550Z 18011KT 20/17 A3001 RMK A01 T02010173  RH  084%=      5-min Rain = 0
KEN1 261551Z 18010KT 20/17 A3001 RMK A01 T02010172  RH  083%=      5-min Rain = 0
KEN1 261552Z 17010KT 20/17 A3001 RMK A01 T02020172  RH  083%=      5-min Rain = 0
KEN1 261553Z 17009KT 20/17 A3001 RMK A01 T02010173  RH  083%=      5-min Rain = 0
KEN1 261554Z 17009KT 20/17 A3001 RMK A01 T02020174  RH  084%=      5-min Rain = 0
KEN1 261555Z 18010KT 20/17 A3001 RMK A01 T02020173  RH  084%=      5-min Rain = 0
KEN1 261556Z 18010KT 20/17 A3001 RMK A01 T02010172  RH  083%=      5-min Rain = 0
KEN1 261557Z 18011KT 20/17 A3001 RMK A01 T02010172  RH  083%=      5-min Rain = 0
KEN1 261558Z 17012KT 20/17 A3001 RMK A01 T02020172  RH  083%=      5-min Rain = 0
KEN1 261559Z 18012KT 20/17 A3001 RMK A01 T02020172  RH  083%=      5-min Rain = 0
KEN1 261600Z 18012KT 20/17 A3001 RMK A01 T02020172  RH  083%=      5-min Rain = 0
KEN1 261601Z 18012KT 20/17 A3001 RMK A01 T02020172  RH  083%=      5-min Rain = 0
KEN1 261602Z 18011KT 20/17 A3001 RMK A01 T02020172  RH  083%=      5-min Rain = 0
KEN1 261603Z 18010KT 20/17 A3001 RMK A01 T02020173  RH  083%=      5-min Rain = 0
KEN1 261604Z 18010KT 20/17 A3001 RMK A01 T02020174  RH  084%=      5-min Rain = 0
KEN1 261605Z 18009KT 20/17 A3001 RMK A01 T02020173  RH  084%=      5-min Rain = 0
KEN1 261606Z 17009KT 20/17 A3001 RMK A01 T02010173  RH  084%=      5-min Rain = 0
KEN1 261607Z 18008KT 20/17 A3001 RMK A01 T02010174  RH  084%=      5-min Rain = 0
KEN1 261608Z 18010KT 20/17 A3001 RMK A01 T02010174  RH  084%=      5-min Rain = 0
KEN1 261609Z 18009KT 20/17 A3001 RMK A01 T02010173  RH  084%=      5-min Rain = 0
KEN1 261610Z 18011KT 20/17 A3001 RMK A01 T02010173  RH  084%=      5-min Rain = 0
KEN1 261611Z 18011KT 20/17 A3001 RMK A01 T02010173  RH  084%=      5-min Rain = 0
KEN1 261612Z 17010KT 20/17 A3001 RMK A01 T02010173  RH  084%=      5-min Rain = 0
KEN1 261613Z 17011KT 20/17 A3001 RMK A01 T02010173  RH  084%=      5-min Rain = 0
KEN1 261614Z 19012KT 20/17 A3001 RMK A01 T02010173  RH  084%=      5-min Rain = 0
KEN1 261615Z 18011KT 20/17 A3001 RMK A01 T02010172  RH  083%=      5-min Rain = 0
KEN1 261616Z 19012KT 20/17 A3001 RMK A01 T02010172  RH  083%=      5-min Rain = 0
KEN1 261617Z 19012KT 20/17 A3001 RMK A01 T02010172  RH  083%=      5-min Rain = 0
KEN1 261618Z 18011KT 20/17 A3001 RMK A01 T02010172  RH  083%=      5-min Rain = 0
KEN1 261619Z 18010KT 20/17 A3001 RMK A01 T02010172  RH  083%=      5-min Rain = 0
KEN1 261620Z 18010KT 20/17 A3001 RMK A01 T02010173  RH  084%=      5-min Rain = 0
KEN1 261621Z 18009KT 20/17 A3001 RMK A01 T02010173  RH  084%=      5-min Rain = 0
KEN1 261622Z 18009KT 20/17 A3001 RMK A01 T02010174  RH  085%=      5-min Rain = 0
KEN1 261623Z 18011KT 20/17 A3001 RMK A01 T02000174  RH  085%=      5-min Rain = 0
KEN1 261624Z 18010KT 20/17 A30 RMK A01 T02000174  RH  085%=      5-min Rain = 0
KEN1 261625Z 18011KT 20/17 A30 RMK A01 T02000173  RH  084%=      5-min Rain = 0
KEN1 261626Z 17011KT 20/17 A30 RMK A01 T02000173  RH  084%=      5-min Rain = 0
KEN1 261627Z 17011KT 20/17 A30 RMK A01 T02000173  RH  084%=      5-min Rain = 0
KEN1 261628Z 17010KT 20/17 A30 RMK A01 T02010173  RH  084%=      5-min Rain = 0
KEN1 261629Z 17010KT 20/17 A30 RMK A01 T02010173  RH  084%=      5-min Rain = 0
KEN1 261630Z 17009KT 20/17 A30 RMK A01 T02010173  RH  084%=      5-min Rain = 0
KEN1 261631Z 17011KT 20/17 A30 RMK A01 T02010174  RH  084%=      5-min Rain = 0
KEN1 261632Z 17011KT 20/17 A30 RMK A01 T02010173  RH  084%=      5-min Rain = 0
KEN1 261633Z 17011KT 20/17 A30 RMK A01 T02020173  RH  084%=      5-min Rain = 0
KEN1 261634Z 17010KT 20/17 A30 RMK A01 T02020174  RH  084%=      5-min Rain = 0
KEN1 261635Z 17009KT 20/17 A30 RMK A01 T02020174  RH  084%=      5-min Rain = 0
KEN1 261636Z 17011KT 20/18 A30 RMK A01 T02030175  RH  084%=      5-min Rain = 0
KEN1 261637Z 17013KT 20/17 A30 RMK A01 T02030174  RH  083%=      5-min Rain = 0
KEN1 261638Z 18013KT 20/17 A30 RMK A01 T02030173  RH  083%=      5-min Rain = 0
KEN1 261639Z 17013KT 20/17 A30 RMK A01 T02030173  RH  083%=      5-min Rain = 0
KEN1 261640Z 17012KT 20/17 A30 RMK A01 T02040174  RH  083%=      5-min Rain = 0
KEN1 261641Z 18012KT 20/17 A3001 RMK A01 T02030173  RH  083%=      5-min Rain = 0
KEN1 261642Z 19010KT 20/17 A30 RMK A01 T02040174  RH  083%=      5-min Rain = 0
KEN1 261643Z 19010KT 20/18 A30 RMK A01 T02030175  RH  084%=      5-min Rain = 0
KEN1 261644Z 19010KT 20/18 A30 RMK A01 T02030175  RH  084%=      5-min Rain = 0
KEN1 261645Z 19011KT 20/17 A30 RMK A01 T02030174  RH  083%=      5-min Rain = 0
KEN1 261646Z 18010KT 20/17 A30 RMK A01 T02030174  RH  083%=      5-min Rain = 0
KEN1 261647Z 18010KT 20/17 A30 RMK A01 T02030174  RH  084%=      5-min Rain = 0
KEN1 261648Z 17010KT 20/18 A30 RMK A01 T02030175  RH  084%=      5-min Rain = 0
KEN1 261649Z 18012KT 20/18 A30 RMK A01 T02030175  RH  084%=      5-min Rain = 0
KEN1 261650Z 17011KT 20/17 A30 RMK A01 T02030174  RH  083%=      5-min Rain = 0
KEN1 261651Z 17011KT 20/17 A30 RMK A01 T02030174  RH  083%=      5-min Rain = 0
KEN1 261652Z 17012KT 20/18 A30 RMK A01 T02040175  RH  083%=      5-min Rain = 0
KEN1 261653Z 18009KT 20/17 A30 RMK A01 T02040174  RH  083%=      5-min Rain = 0
KEN1 261654Z 17008KT 20/18 A30 RMK A01 T02040175  RH  083%=      5-min Rain = 0
KEN1 261655Z 17009KT 20/18 A30 RMK A01 T02040176  RH  084%=      5-min Rain = 0
KEN1 261656Z 16009KT 21/18 A30 RMK A01 T02050177  RH  084%=      5-min Rain = 0
KEN1 261657Z 16010KT 21/18 A30 RMK A01 T02050177  RH  084%=      5-min Rain = 0
KEN1 261658Z 16012KT 21/18 A30 RMK A01 T02050176  RH  083%=      5-min Rain = 0
KEN1 261659Z 15011KT 21/18 A30 RMK A01 T02060176  RH  083%=      5-min Rain = 0
KEN1 261700Z 15011KT 21/18 A30 RMK A01 T02060177  RH  084%=      5-min Rain = 0
KEN1 261701Z 15011KT 21/18 A30 RMK A01 T02060178  RH  084%=      5-min Rain = 0
KEN1 261702Z 15010KT 21/18 A30 RMK A01 T02050177  RH  084%=      5-min Rain = 0
KEN1 261703Z 16010KT 21/18 A30 RMK A01 T02050176  RH  083%=      5-min Rain = 0
KEN1 261704Z 16010KT 21/18 A30 RMK A01 T02050176  RH  084%=      5-min Rain = 0
KEN1 261705Z 15010KT 21/18 A30 RMK A01 T02050177  RH  084%=      5-min Rain = 0
KEN1 261706Z 15011KT 21/18 A30 RMK A01 T02060176  RH  083%=      5-min Rain = 0
KEN1 261707Z 15012KT 21/18 A30 RMK A01 T02060176  RH  083%=      5-min Rain = 0
KEN1 261708Z 15010KT 21/18 A30 RMK A01 T02060176  RH  083%=      5-min Rain = 0
KEN1 261709Z 15010KT 21/18 A30 RMK A01 T02060175  RH  082%=      5-min Rain = 0
KEN1 261710Z 15009KT 21/18 A30 RMK A01 T02070177  RH  083%=      5-min Rain = 0
KEN1 261711Z 15011KT 21/18 A30 RMK A01 T02070177  RH  083%=      5-min Rain = 0
KEN1 261712Z 16010KT 21/18 A30 RMK A01 T02070177  RH  083%=      5-min Rain = 0
KEN1 261713Z 16011KT 21/18 A30 RMK A01 T02080177  RH  083%=      5-min Rain = 0
KEN1 261714Z 17012KT 21/18 A30 RMK A01 T02080177  RH  082%=      5-min Rain = 0
KEN1 261715Z 17011KT 21/18 A30 RMK A01 T02080176  RH  082%=      5-min Rain = 0
KEN1 261716Z 17009KT 21/18 A30 RMK A01 T02080176  RH  082%=      5-min Rain = 0
KEN1 261717Z 17010KT 21/18 A2999 RMK A01 T02080177  RH  082%=      5-min Rain = 0
KEN1 261718Z 16011KT 21/18 A30 RMK A01 T02080176  RH  082%=      5-min Rain = 0
KEN1 261719Z 17011KT 21/18 A30 RMK A01 T02090176  RH  082%=      5-min Rain = 0
KEN1 261720Z 16013KT 21/18 A30 RMK A01 T02090176  RH  082%=      5-min Rain = 0
KEN1 261721Z 17013KT 21/18 A30 RMK A01 T02090176  RH  082%=      5-min Rain = 0
KEN1 261722Z 16013KT 21/18 A30 RMK A01 T02090177  RH  082%=      5-min Rain = 0
KEN1 261723Z 16013KT 21/18 A30 RMK A01 T02090177  RH  082%=      5-min Rain = 0
KEN1 261724Z 16013KT 21/18 A30 RMK A01 T02090176  RH  082%=      5-min Rain = 0
KEN1 261725Z 17012KT 21/18 A30 RMK A01 T02080176  RH  082%=      5-min Rain = 0
KEN1 261726Z 17012KT 21/18 A30 RMK A01 T02080177  RH  083%=      5-min Rain = 0
KEN1 261727Z 17011KT 21/18 A30 RMK A01 T02070177  RH  083%=      5-min Rain = 0
KEN1 261728Z 17011KT 21/18 A30 RMK A01 T02070177  RH  083%=      5-min Rain = 0
KEN1 261729Z 18012KT 21/18 A30 RMK A01 T02070178  RH  083%=      5-min Rain = 0
KEN1 261730Z 17011KT 21/18 A30 RMK A01 T02070178  RH  083%=      5-min Rain = 0
KEN1 261731Z 17013KT 21/18 A30 RMK A01 T02080177  RH  082%=      5-min Rain = 0
KEN1 261732Z 17014KT 21/18 A30 RMK A01 T02080177  RH  082%=      5-min Rain = 0
KEN1 261733Z 16012KT 21/18 A2999 RMK A01 T02080178  RH  082%=      5-min Rain = 0
KEN1 261734Z 16012KT 21/18 A2999 RMK A01 T02090177  RH  082%=      5-min Rain = 0
KEN1 261735Z 16012KT 21/18 A2998 RMK A01 T02090176  RH  081%=      5-min Rain = 0
KEN1 261736Z 16010KT 21/18 A2998 RMK A01 T02100178  RH  082%=      5-min Rain = 0
KEN1 261737Z 16014KT 21/18 A2998 RMK A01 T02110178  RH  082%=      5-min Rain = 0
KEN1 261738Z 16015KT 21/18 A2999 RMK A01 T02110178  RH  081%=      5-min Rain = 0
KEN1 261739Z 17015KT 21/18 A2999 RMK A01 T02110178  RH  081%=      5-min Rain = 0
KEN1 261740Z 17014KT 21/18 A2999 RMK A01 T02120179  RH  081%=      5-min Rain = 0
KEN1 261741Z 17013KT 21/18 A30 RMK A01 T02120178  RH  081%=      5-min Rain = 0
KEN1 261742Z 18015KT 21/18 A30 RMK A01 T02110179  RH  082%=      5-min Rain = 0
KEN1 261743Z 18016KT 21/18 A30 RMK A01 T02110178  RH  081%=      5-min Rain = 0
KEN1 261744Z 18015KT 21/18 A30 RMK A01 T02100177  RH  082%=      5-min Rain = 0
KEN1 261745Z 17014KT 21/18 A30 RMK A01 T02100178  RH  082%=      5-min Rain = 0
KEN1 261746Z 18015KT 21/18 A2999 RMK A01 T02100178  RH  082%=      5-min Rain = 0
KEN1 261747Z 17012KT 21/18 A2999 RMK A01 T02100178  RH  082%=      5-min Rain = 0
KEN1 261748Z 17014KT 21/18 A2999 RMK A01 T02100178  RH  082%=      5-min Rain = 0
KEN1 261749Z 18013KT 21/18 A2999 RMK A01 T02100177  RH  081%=      5-min Rain = 0
KEN1 261750Z 18011KT 21/18 A2999 RMK A01 T02100178  RH  082%=      5-min Rain = 0
KEN1 261751Z 18011KT 21/18 A2999 RMK A01 T02100178  RH  082%=      5-min Rain = 0
KEN1 261752Z 18010KT 21/18 A2999 RMK A01 T02110179  RH  082%=      5-min Rain = 0
KEN1 261753Z 18011KT 21/18 A2999 RMK A01 T02120180  RH  082%=      5-min Rain = 0
KEN1 261754Z 18013KT 21/18 A2999 RMK A01 T02130179  RH  081%=      5-min Rain = 0
KEN1 261755Z 18013KT 21/18 A2999 RMK A01 T02130179  RH  081%=      5-min Rain = 0
KEN1 261756Z 19012KT 21/18 A2999 RMK A01 T02130178  RH  080%=      5-min Rain = 0
KEN1 261757Z 18011KT 21/18 A2999 RMK A01 T02130179  RH  081%=      5-min Rain = 0
KEN1 261758Z 17010KT 21/18 A2999 RMK A01 T02130179  RH  081%=      5-min Rain = 0
KEN1 261759Z 19013KT 21/18 A2999 RMK A01 T02130180  RH  081%=      5-min Rain = 0
KEN1 261800Z 19012KT 21/18 A2998 RMK A01 T02130179  RH  081%=      5-min Rain = 0
KEN1 261801Z 19011KT 21/18 A2998 RMK A01 T02120179  RH  081%=      5-min Rain = 0
KEN1 261802Z 19010KT 21/18 A2998 RMK A01 T02120179  RH  081%=      5-min Rain = 0
KEN1 261803Z 18011KT 21/18 A2998 RMK A01 T02130179  RH  081%=      5-min Rain = 0
KEN1 261804Z 18012KT 21/18 A2998 RMK A01 T02130178  RH  080%=      5-min Rain = 0
KEN1 261805Z 17013KT 21/18 A2998 RMK A01 T02140179  RH  080%=      5-min Rain = 0
KEN1 261806Z 17012KT 21/18 A2998 RMK A01 T02140179  RH  080%=      5-min Rain = 0
KEN1 261807Z 18014KT 21/18 A2998 RMK A01 T02140179  RH  080%=      5-min Rain = 0
KEN1 261808Z 18012KT 21/18 A2999 RMK A01 T02140179  RH  081%=      5-min Rain = 0
KEN1 261809Z 17013KT 21/18 A2999 RMK A01 T02140181  RH  081%=      5-min Rain = 0
KEN1 261810Z 18013KT 21/18 A2999 RMK A01 T02140180  RH  081%=      5-min Rain = 0
KEN1 261811Z 18010KT 21/18 A2999 RMK A01 T02140180  RH  081%=      5-min Rain = 0
KEN1 261812Z 18010KT 21/18 A2999 RMK A01 T02140182  RH  082%=      5-min Rain = 0
KEN1 261813Z 18010KT 22/18 A2999 RMK A01 T02150181  RH  081%=      5-min Rain = 0
KEN1 261814Z 18010KT 22/18 A2998 RMK A01 T02150181  RH  081%=      5-min Rain = 0
KEN1 261815Z 18009KT 22/18 A2998 RMK A01 T02160181  RH  081%=      5-min Rain = 0
KEN1 261816Z 18011KT 22/18 A2999 RMK A01 T02160181  RH  081%=      5-min Rain = 0
KEN1 261817Z 17011KT 22/18 A2999 RMK A01 T02160181  RH  080%=      5-min Rain = 0
KEN1 261818Z 17012KT 22/18 A2999 RMK A01 T02170181  RH  080%=      5-min Rain = 0
KEN1 261819Z 17011KT 22/18 A2999 RMK A01 T02170181  RH  080%=      5-min Rain = 0
KEN1 261820Z 17011KT 22/18 A2999 RMK A01 T02170181  RH  080%=      5-min Rain = 0
KEN1 261821Z 17013KT 22/18 A2998 RMK A01 T02170181  RH  080%=      5-min Rain = 0
KEN1 261822Z 17015KT 22/18 A2998 RMK A01 T02180179  RH  079%=      5-min Rain = 0
KEN1 261823Z 18012KT 22/18 A2998 RMK A01 T02180179  RH  078%=      5-min Rain = 0
KEN1 261824Z 18010G15KT 22/18 A2998 RMK A01 T02190182  RH  079%=      5-min Rain = 0
KEN1 261825Z 18012KT 22/18 A2998 RMK A01 T02210182  RH  079%=      5-min Rain = 0
KEN1 261826Z 18012KT 22/18 A2998 RMK A01 T02230182  RH  078%=      5-min Rain = 0
KEN1 261827Z 18013KT 22/18 A2997 RMK A01 T02240181  RH  077%=      5-min Rain = 0
KEN1 261828Z 18012KT 22/18 A2997 RMK A01 T02240180  RH  076%=      5-min Rain = 0
KEN1 261829Z 16009KT 22/18 A2996 RMK A01 T02240181  RH  076%=      5-min Rain = 0
KEN1 261830Z 16008KT 22/18 A2996 RMK A01 T02240181  RH  076%=      5-min Rain = 0
KEN1 261831Z 17009KT 22/18 A2996 RMK A01 T02240181  RH  076%=      5-min Rain = 0
KEN1 261832Z 17011KT 23/18 A2996 RMK A01 T02250181  RH  076%=      5-min Rain = 0
KEN1 261833Z 18012KT 23/18 A2996 RMK A01 T02250182  RH  077%=      5-min Rain = 0
KEN1 261834Z 18014KT 23/18 A2997 RMK A01 T02260180  RH  075%=      5-min Rain = 0
KEN1 261835Z 18012KT 23/18 A2997 RMK A01 T02260180  RH  076%=      5-min Rain = 0
KEN1 261836Z 17014KT 23/18 A2996 RMK A01 T02250180  RH  076%=      5-min Rain = 0
KEN1 261837Z 17013KT 23/18 A2996 RMK A01 T02250180  RH  076%=      5-min Rain = 0
KEN1 261838Z 18011KT 23/18 A2996 RMK A01 T02250181  RH  076%=      5-min Rain = 0
KEN1 261839Z 18009KT 23/18 A2995 RMK A01 T02250180  RH  076%=      5-min Rain = 0
KEN1 261840Z 17008KT 23/18 A2995 RMK A01 T02260180  RH  076%=      5-min Rain = 0
KEN1 261841Z 18006KT 23/18 A2995 RMK A01 T02260181  RH  076%=      5-min Rain = 0
KEN1 261842Z 17005KT 23/18 A2995 RMK A01 T02270183  RH  076%=      5-min Rain = 0
KEN1 261843Z 17009KT 23/18 A2995 RMK A01 T02270183  RH  076%=      5-min Rain = 0
KEN1 261844Z 18010KT 23/18 A2995 RMK A01 T02280182  RH  075%=      5-min Rain = 0
KEN1 261845Z 18010KT 23/18 A2996 RMK A01 T02280182  RH  075%=      5-min Rain = 0
KEN1 261846Z 18010KT 23/18 A2996 RMK A01 T02290183  RH  075%=      5-min Rain = 0
KEN1 261847Z 18011KT 23/18 A2996 RMK A01 T02290182  RH  075%=      5-min Rain = 0
KEN1 261848Z 19010KT 23/18 A2996 RMK A01 T02280182  RH  075%=      5-min Rain = 0
KEN1 261849Z 18011KT 23/18 A2996 RMK A01 T02280183  RH  075%=      5-min Rain = 0
KEN1 261850Z 18011KT 23/18 A2996 RMK A01 T02280182  RH  075%=      5-min Rain = 0
KEN1 261851Z 17012KT 23/18 A2997 RMK A01 T02280183  RH  076%=      5-min Rain = 0
KEN1 261852Z 18014KT 23/19 A2997 RMK A01 T02280185  RH  076%=      5-min Rain = 0
KEN1 261853Z 18014KT 23/18 A2998 RMK A01 T02280183  RH  076%=      5-min Rain = 0
KEN1 261854Z 17018KT 23/18 A2998 RMK A01 T02260182  RH  076%=      5-min Rain = 0
KEN1 261855Z 17021G26KT 23/18 A2998 RMK A01 T02260180  RH  075%=      5-min Rain = 0
KEN1 261856Z 17016KT 23/18 A2998 RMK A01 T02260180  RH  075%=      5-min Rain = 0
KEN1 261857Z 16017KT 23/18 A2998 RMK A01 T02260182  RH  076%=      5-min Rain = 0
KEN1 261858Z 17018KT 23/18 A2998 RMK A01 T02260181  RH  076%=      5-min Rain = 0
KEN1 261859Z 17021KT 23/18 A2998 RMK A01 T02260179  RH  074%=      5-min Rain = 0
KEN1 261900Z 17020KT 23/18 A2997 RMK A01 T02270178  RH  074%=      5-min Rain = 0
KEN1 261901Z 17018KT 23/18 A2997 RMK A01 T02280180  RH  075%=      5-min Rain = 0
KEN1 261902Z 18018KT 23/18 A2997 RMK A01 T02290181  RH  074%=      5-min Rain = 0
KEN1 261903Z 17019KT 23/18 A2997 RMK A01 T02300181  RH  074%=      5-min Rain = 0
KEN1 261904Z 18019KT 23/18 A2997 RMK A01 T02300181  RH  074%=      5-min Rain = 0
KEN1 261905Z 17018KT 23/18 A2997 RMK A01 T02310182  RH  074%=      5-min Rain = 0
KEN1 261906Z 17021KT 23/18 A2997 RMK A01 T02310183  RH  074%=      5-min Rain = 0
KEN1 261907Z 17021KT 23/18 A2997 RMK A01 T02320181  RH  073%=      5-min Rain = 0
KEN1 261908Z 17020KT 23/18 A2997 RMK A01 T02310181  RH  073%=      5-min Rain = 0
KEN1 261909Z 17019KT 23/18 A2997 RMK A01 T02310181  RH  073%=      5-min Rain = 0
KEN1 261910Z 17017KT 23/18 A2997 RMK A01 T02320183  RH  074%=      5-min Rain = 0
KEN1 261911Z 17017KT 23/19 A2997 RMK A01 T02340185  RH  074%=      5-min Rain = 0
KEN1 261912Z 16017KT 24/19 A2997 RMK A01 T02350185  RH  074%=      5-min Rain = 0
KEN1 261913Z 17015KT 24/19 A2997 RMK A01 T02350185  RH  073%=      5-min Rain = 0
KEN1 261914Z 17017KT 24/19 A2997 RMK A01 T02360186  RH  074%=      5-min Rain = 0
KEN1 261915Z 17018KT 24/18 A2997 RMK A01 T02350182  RH  072%=      5-min Rain = 0
KEN1 261916Z 17016KT 23/18 A2996 RMK A01 T02330181  RH  072%=      5-min Rain = 0
KEN1 261917Z 17016KT 23/18 A2996 RMK A01 T02320183  RH  074%=      5-min Rain = 0
KEN1 261918Z 17015KT 23/18 A2996 RMK A01 T02320183  RH  074%=      5-min Rain = 0
KEN1 261919Z 17013KT 23/19 A2997 RMK A01 T02330185  RH  074%=      5-min Rain = 0
KEN1 261920Z 17015KT 23/19 A2997 RMK A01 T02340185  RH  074%=      5-min Rain = 0
KEN1 261921Z 17020KT 23/18 A2996 RMK A01 T02340183  RH  073%=      5-min Rain = 0
KEN1 261922Z 17018KT 23/18 A2996 RMK A01 T02340181  RH  072%=      5-min Rain = 0
KEN1 261923Z 17016KT 23/18 A2996 RMK A01 T02340181  RH  072%=      5-min Rain = 0
KEN1 261924Z 17015KT 23/18 A2996 RMK A01 T02340183  RH  073%=      5-min Rain = 0
KEN1 261925Z 17017KT 23/18 A2996 RMK A01 T02340181  RH  072%=      5-min Rain = 0
KEN1 261926Z 17017KT 23/18 A2996 RMK A01 T02340181  RH  072%=      5-min Rain = 0
KEN1 261927Z 16019KT 23/18 A2996 RMK A01 T02340181  RH  072%=      5-min Rain = 0
KEN1 261928Z 16017KT 23/18 A2996 RMK A01 T02340182  RH  072%=      5-min Rain = 0
KEN1 261929Z 17017KT 23/18 A2996 RMK A01 T02340182  RH  073%=      5-min Rain = 0
KEN1 261930Z 17018KT 23/18 A2996 RMK A01 T02340180  RH  072%=      5-min Rain = 0
KEN1 261931Z 17017KT 23/18 A2996 RMK A01 T02340181  RH  072%=      5-min Rain = 0
KEN1 261932Z 16015KT 23/18 A2996 RMK A01 T02340181  RH  072%=      5-min Rain = 0
KEN1 261933Z 17017KT 23/18 A2996 RMK A01 T02340181  RH  072%=      5-min Rain = 0
KEN1 261934Z 17016KT 23/18 A2996 RMK A01 T02340182  RH  072%=      5-min Rain = 0
KEN1 261935Z 16016KT 24/18 A2996 RMK A01 T02350181  RH  072%=      5-min Rain = 0
KEN1 261936Z 17016KT 24/18 A2996 RMK A01 T02360180  RH  071%=      5-min Rain = 0
KEN1 261937Z 17016KT 24/18 A2996 RMK A01 T02360179  RH  071%=      5-min Rain = 0
KEN1 261938Z 17016KT 24/18 A2996 RMK A01 T02360180  RH  071%=      5-min Rain = 0
KEN1 261939Z 17015KT 24/18 A2995 RMK A01 T02360180  RH  071%=      5-min Rain = 0
KEN1 261940Z 16014KT 24/18 A2995 RMK A01 T02360181  RH  071%=      5-min Rain = 0
KEN1 261941Z 16014G20KT 24/18 A2995 RMK A01 T02360183  RH  072%=      5-min Rain = 0
KEN1 261942Z 16018KT 24/18 A2995 RMK A01 T02370180  RH  071%=      5-min Rain = 0
KEN1 261943Z 17018KT 24/18 A2995 RMK A01 T02370178  RH  069%=      5-min Rain = 0
KEN1 261944Z 17018KT 24/18 A2995 RMK A01 T02360178  RH  070%=      5-min Rain = 0
KEN1 261945Z 17017KT 24/18 A2995 RMK A01 T02360179  RH  070%=      5-min Rain = 0
KEN1 261946Z 18017KT 24/18 A2995 RMK A01 T02370179  RH  070%=      5-min Rain = 0
KEN1 261947Z 17017KT 24/18 A2995 RMK A01 T02370178  RH  070%=      5-min Rain = 0
KEN1 261948Z 17016KT 24/18 A2995 RMK A01 T02370178  RH  069%=      5-min Rain = 0
KEN1 261949Z 17017KT 24/18 A2995 RMK A01 T02380178  RH  069%=      5-min Rain = 0
KEN1 261950Z 17015KT 24/18 A2995 RMK A01 T02380178  RH  069%=      5-min Rain = 0
KEN1 261951Z 16015KT 24/18 A2995 RMK A01 T02390177  RH  068%=      5-min Rain = 0
KEN1 261952Z 16014KT 24/18 A2995 RMK A01 T02400177  RH  068%=      5-min Rain = 0
KEN1 261953Z 17014KT 24/18 A2995 RMK A01 T02420177  RH  067%=      5-min Rain = 0
KEN1 261954Z 16011KT 24/18 A2995 RMK A01 T02420179  RH  068%=      5-min Rain = 0
KEN1 261955Z 17011KT 24/18 A2995 RMK A01 T02430182  RH  069%=      5-min Rain = 0
KEN1 261956Z 18010KT 25/19 A2995 RMK A01 T02450185  RH  070%=      5-min Rain = 0
KEN1 261957Z 18012G17KT 25/18 A2995 RMK A01 T02460182  RH  067%=      5-min Rain = 0
KEN1 261958Z 18015KT 25/18 A2995 RMK A01 T02470180  RH  066%=      5-min Rain = 0
KEN1 261959Z 17016KT 25/18 A2995 RMK A01 T02470179  RH  066%=      5-min Rain = 0
KEN1 262000Z 16017KT 25/18 A2995 RMK A01 T02460178  RH  066%=      5-min Rain = 0
KEN1 262001Z 17016KT 25/18 A2995 RMK A01 T02460176  RH  065%=      5-min Rain = 0
KEN1 262002Z 17015KT 25/18 A2995 RMK A01 T02460176  RH  065%=      5-min Rain = 0
KEN1 262003Z 18011KT 25/18 A2995 RMK A01 T02460175  RH  065%=      5-min Rain = 0
KEN1 262004Z 18017G23KT 25/18 A2994 RMK A01 T02470178  RH  065%=      5-min Rain = 0
KEN1 262005Z 18016KT 25/17 A2995 RMK A01 T02490172  RH  062%=      5-min Rain = 0
KEN1 262006Z 18015KT 25/18 A2994 RMK A01 T02490175  RH  064%=      5-min Rain = 0
KEN1 262007Z 18015KT 25/17 A2994 RMK A01 T02480174  RH  064%=      5-min Rain = 0
KEN1 262008Z 18018KT 25/18 A2994 RMK A01 T02480175  RH  064%=      5-min Rain = 0
KEN1 262009Z 18017G22KT 25/17 A2994 RMK A01 T02470173  RH  063%=      5-min Rain = 0
KEN1 262010Z 18014G20KT 25/18 A2994 RMK A01 T02470176  RH  065%=      5-min Rain = 0
KEN1 262011Z 18015KT 25/18 A2994 RMK A01 T02470178  RH  065%=      5-min Rain = 0
KEN1 262012Z 17021G27KT 25/18 A2994 RMK A01 T02480177  RH  065%=      5-min Rain = 0
KEN1 262013Z 16018KT 25/18 A2993 RMK A01 T02480177  RH  064%=      5-min Rain = 0
KEN1 262014Z 16020KT 25/18 A2993 RMK A01 T02490177  RH  064%=      5-min Rain = 0
KEN1 262015Z 16018KT 25/18 A2993 RMK A01 T02490179  RH  065%=      5-min Rain = 0
KEN1 262016Z 16018KT 25/18 A2993 RMK A01 T02490181  RH  066%=      5-min Rain = 0
KEN1 262017Z 16014G20KT 25/18 A2993 RMK A01 T02490182  RH  066%=      5-min Rain = 0
KEN1 262018Z 18018KT 25/18 A2993 RMK A01 T02500180  RH  065%=      5-min Rain = 0
KEN1 262019Z 17018KT 25/18 A2993 RMK A01 T02500177  RH  064%=      5-min Rain = 0
KEN1 262020Z 18017KT 25/18 A2993 RMK A01 T02500181  RH  065%=      5-min Rain = 0
KEN1 262021Z 18016KT 25/18 A2993 RMK A01 T02500182  RH  066%=      5-min Rain = 0
KEN1 262022Z 17015KT 25/18 A2993 RMK A01 T02510183  RH  066%=      5-min Rain = 0
KEN1 262023Z 17021KT 25/18 A2992 RMK A01 T02510182  RH  065%=      5-min Rain = 0
KEN1 262024Z 16019KT 25/18 A2992 RMK A01 T02490182  RH  066%=      5-min Rain = 0
KEN1 262025Z 17019KT 25/18 A2992 RMK A01 T02480183  RH  067%=      5-min Rain = 0
KEN1 262026Z 17017KT 25/18 A2992 RMK A01 T02470182  RH  067%=      5-min Rain = 0
KEN1 262027Z 16018G24KT 25/18 A2992 RMK A01 T02460182  RH  067%=      5-min Rain = 0
KEN1 262028Z 17021KT 25/18 A2992 RMK A01 T02460182  RH  068%=      5-min Rain = 0
KEN1 262029Z 17020KT 25/18 A2991 RMK A01 T02460182  RH  068%=      5-min Rain = 0
KEN1 262030Z 16022KT 25/18 A2991 RMK A01 T02460182  RH  068%=      5-min Rain = 0
KEN1 262031Z 16021KT 25/18 A2991 RMK A01 T02460181  RH  067%=      5-min Rain = 0
KEN1 262032Z 17021KT 25/18 A2991 RMK A01 T02460178  RH  066%=      5-min Rain = 0
KEN1 262033Z 17019KT 25/18 A2991 RMK A01 T02470181  RH  067%=      5-min Rain = 0
KEN1 262034Z 17018KT 25/18 A299 RMK A01 T02470181  RH  067%=      5-min Rain = 0
KEN1 262035Z 18016KT 25/18 A299 RMK A01 T02470179  RH  066%=      5-min Rain = 0
KEN1 262036Z 18016KT 25/18 A299 RMK A01 T02470178  RH  065%=      5-min Rain = 0
KEN1 262037Z 17015KT 25/18 A299 RMK A01 T02480180  RH  066%=      5-min Rain = 0
KEN1 262038Z 17015KT 25/18 A299 RMK A01 T02490182  RH  067%=      5-min Rain = 0
KEN1 262039Z 17016KT 25/18 A299 RMK A01 T02490182  RH  067%=      5-min Rain = 0
KEN1 262040Z 17015KT 25/18 A299 RMK A01 T02480181  RH  066%=      5-min Rain = 0
KEN1 262041Z 17018KT 25/18 A2991 RMK A01 T02480182  RH  067%=      5-min Rain = 0
KEN1 262042Z 16016KT 25/18 A2991 RMK A01 T02490183  RH  067%=      5-min Rain = 0
KEN1 262043Z 17019KT 25/18 A2991 RMK A01 T02500183  RH  066%=      5-min Rain = 0
KEN1 262044Z 17020KT 25/18 A2991 RMK A01 T02500179  RH  064%=      5-min Rain = 0
KEN1 262045Z 17019KT 25/18 A2991 RMK A01 T02490177  RH  064%=      5-min Rain = 0
KEN1 262046Z 16021KT 25/18 A2991 RMK A01 T02490180  RH  065%=      5-min Rain = 0
KEN1 262047Z 17017KT 25/18 A2991 RMK A01 T02490182  RH  066%=      5-min Rain = 0
KEN1 262048Z 16014KT 25/19 A2991 RMK A01 T02510185  RH  067%=      5-min Rain = 0
KEN1 262049Z 17015KT 25/19 A2991 RMK A01 T02540187  RH  066%=      5-min Rain = 0
KEN1 262050Z 17020KT 25/18 A2991 RMK A01 T02540182  RH  064%=      5-min Rain = 0
KEN1 262051Z 16017G22KT 25/18 A2991 RMK A01 T02520180  RH  064%=      5-min Rain = 0
KEN1 262052Z 16019KT 25/18 A2991 RMK A01 T02510181  RH  065%=      5-min Rain = 0
KEN1 262053Z 17021KT 25/18 A299 RMK A01 T02530182  RH  065%=      5-min Rain = 0
KEN1 262054Z 17024KT 26/18 A299 RMK A01 T02560179  RH  062%=      5-min Rain = 0
KEN1 262055Z 17025KT 26/18 A299 RMK A01 T02570180  RH  062%=      5-min Rain = 0
KEN1 262056Z 17022KT 26/18 A299 RMK A01 T02570179  RH  062%=      5-min Rain = 0
KEN1 262057Z 17019KT 26/18 A299 RMK A01 T02580183  RH  063%=      5-min Rain = 0
KEN1 262058Z 17022KT 26/18 A299 RMK A01 T02590183  RH  063%=      5-min Rain = 0
KEN1 262059Z 17020KT 26/18 A299 RMK A01 T02590184  RH  063%=      5-min Rain = 0
KEN1 262100Z 16017KT 26/19 A299 RMK A01 T02590190  RH  066%=      5-min Rain = 0
KEN1 262101Z 16021KT 26/19 A299 RMK A01 T02600187  RH  064%=      5-min Rain = 0
KEN1 262102Z 16026KT 26/18 A299 RMK A01 T02590183  RH  063%=      5-min Rain = 0
KEN1 262103Z 16022KT 26/19 A299 RMK A01 T02570185  RH  064%=      5-min Rain = 0
KEN1 262104Z 15022KT 26/18 A2989 RMK A01 T02560184  RH  064%=      5-min Rain = 0
KEN1 262105Z 15022G31KT 26/19 A299 RMK A01 T02570185  RH  064%=      5-min Rain = 0
KEN1 262106Z 16024G29KT 26/18 A2989 RMK A01 T02570182  RH  063%=      5-min Rain = 0
KEN1 262107Z 16023KT 26/18 A299 RMK A01 T02570182  RH  063%=      5-min Rain = 0
KEN1 262108Z 16022KT 26/19 A2989 RMK A01 T02570185  RH  065%=      5-min Rain = 0
KEN1 262109Z 17021KT 26/18 A2989 RMK A01 T02560182  RH  063%=      5-min Rain = 0
KEN1 262110Z 16021G26KT 26/18 A2989 RMK A01 T02560184  RH  065%=      5-min Rain = 0
KEN1 262111Z 17022G27KT 26/18 A2989 RMK A01 T02570182  RH  063%=      5-min Rain = 0
KEN1 262112Z 17022G28KT 26/18 A2989 RMK A01 T02570179  RH  062%=      5-min Rain = 0
KEN1 262113Z 17021KT 26/18 A2989 RMK A01 T02570177  RH  061%=      5-min Rain = 0
KEN1 262114Z 18024KT 26/18 A2989 RMK A01 T02570175  RH  060%=      5-min Rain = 0
KEN1 262115Z 17021KT 26/17 A2988 RMK A01 T02580173  RH  059%=      5-min Rain = 0
KEN1 262116Z 17022KT 26/17 A2988 RMK A01 T02590174  RH  060%=      5-min Rain = 0
KEN1 262117Z 16021G26KT 26/18 A2989 RMK A01 T02600175  RH  060%=      5-min Rain = 0
KEN1 262118Z 17023KT 26/18 A2988 RMK A01 T02600175  RH  060%=      5-min Rain = 0
KEN1 262119Z 17023KT 26/18 A2989 RMK A01 T02600177  RH  060%=      5-min Rain = 0
KEN1 262120Z 16022KT 26/17 A2988 RMK A01 T02590173  RH  059%=      5-min Rain = 0
KEN1 262121Z 16022G27KT 26/17 A2988 RMK A01 T02580171  RH  059%=      5-min Rain = 0
KEN1 262122Z 17023KT 26/17 A2988 RMK A01 T02580171  RH  059%=      5-min Rain = 0
KEN1 262123Z 17020KT 26/17 A2988 RMK A01 T02590171  RH  058%=      5-min Rain = 0
KEN1 262124Z 17020G26KT 26/18 A2988 RMK A01 T02590176  RH  060%=      5-min Rain = 0
KEN1 262125Z 16023KT 26/18 A2988 RMK A01 T02600175  RH  060%=      5-min Rain = 0
KEN1 262126Z 17022G27KT 26/17 A2988 RMK A01 T02600171  RH  058%=      5-min Rain = 0
KEN1 262127Z 17023KT 26/17 A2988 RMK A01 T02600172  RH  058%=      5-min Rain = 0
KEN1 262128Z 18022KT 26/17 A2988 RMK A01 T02610173  RH  059%=      5-min Rain = 0
KEN1 262129Z 17022KT 26/18 A2988 RMK A01 T02600176  RH  060%=      5-min Rain = 0
KEN1 262130Z 17023KT 26/18 A2988 RMK A01 T02600175  RH  059%=      5-min Rain = 0
KEN1 262131Z 17023KT 26/18 A2988 RMK A01 T02600175  RH  059%=      5-min Rain = 0
KEN1 262132Z 16018G23KT 26/18 A2988 RMK A01 T02600176  RH  060%=      5-min Rain = 0
KEN1 262133Z 17020KT 26/17 A2988 RMK A01 T02610170  RH  057%=      5-min Rain = 0
KEN1 262134Z 18021KT 26/17 A2987 RMK A01 T02630169  RH  056%=      5-min Rain = 0
KEN1 262135Z 17023KT 26/16 A2987 RMK A01 T02630157  RH  052%=      5-min Rain = 0
KEN1 262136Z 17023KT 26/16 A2987 RMK A01 T02640163  RH  054%=      5-min Rain = 0
KEN1 262137Z 17021KT 26/16 A2987 RMK A01 T02630162  RH  054%=      5-min Rain = 0
KEN1 262138Z 17022KT 26/16 A2987 RMK A01 T02630159  RH  053%=      5-min Rain = 0
KEN1 262139Z 17022KT 27/15 A2987 RMK A01 T02650150  RH  049%=      5-min Rain = 0
KEN1 262140Z 17022KT 27/15 A2987 RMK A01 T02660151  RH  049%=      5-min Rain = 0
KEN1 262141Z 16020G25KT 27/15 A2987 RMK A01 T02670147  RH  048%=      5-min Rain = 0
KEN1 262142Z 16022KT 27/15 A2986 RMK A01 T02700147  RH  047%=      5-min Rain = 0
KEN1 262143Z 16021KT 27/15 A2986 RMK A01 T02700145  RH  046%=      5-min Rain = 0
KEN1 262144Z 18019G24KT 27/15 A2986 RMK A01 T02720145  RH  046%=      5-min Rain = 0
KEN1 262145Z 18022KT 28/15 A2986 RMK A01 T02750145  RH  045%=      5-min Rain = 0
KEN1 262146Z 16021KT 28/14 A2986 RMK A01 T02750136  RH  043%=      5-min Rain = 0
KEN1 262147Z 18021KT 27/13 A2986 RMK A01 T02740127  RH  040%=      5-min Rain = 0
KEN1 262148Z 18021G27KT 28/12 A2986 RMK A01 T02760122  RH  038%=      5-min Rain = 0
KEN1 262149Z 17020KT 28/13 A2986 RMK A01 T02770129  RH  040%=      5-min Rain = 0
KEN1 262150Z 17022KT 28/12 A2986 RMK A01 T02770121  RH  038%=      5-min Rain = 0
KEN1 262151Z 17021KT 28/11 A2986 RMK A01 T02780111  RH  035%=      5-min Rain = 0
KEN1 262152Z 17023KT 28/12 A2985 RMK A01 T02780115  RH  036%=      5-min Rain = 0
KEN1 262153Z 17023KT 28/11 A2986 RMK A01 T02800107  RH  034%=      5-min Rain = 0
KEN1 262154Z 17022KT 28/11 A2985 RMK A01 T02800107  RH  034%=      5-min Rain = 0
KEN1 262155Z 18026KT 28/10 A2985 RMK A01 T02800097  RH  032%=      5-min Rain = 0
KEN1 262156Z 18024KT 28/09 A2985 RMK A01 T02800093  RH  031%=      5-min Rain = 0
KEN1 262157Z 18021KT 28/10 A2985 RMK A01 T02810101  RH  032%=      5-min Rain = 0
KEN1 262158Z 18022KT 28/10 A2985 RMK A01 T02820102  RH  032%=      5-min Rain = 0
KEN1 262159Z 18021KT 28/09 A2985 RMK A01 T02820094  RH  031%=      5-min Rain = 0
KEN1 262200Z 18022KT 28/10 A2985 RMK A01 T02820102  RH  033%=      5-min Rain = 0
KEN1 262201Z 17024KT 28/09 A2985 RMK A01 T02820089  RH  030%=      5-min Rain = 0
KEN1 262202Z 17022KT 28/09 A2985 RMK A01 T02820088  RH  030%=      5-min Rain = 0
KEN1 262203Z 17022KT 28/08 A2985 RMK A01 T02830082  RH  028%=      5-min Rain = 0
KEN1 262204Z 17020G25KT 28/09 A2985 RMK A01 T02830087  RH  029%=      5-min Rain = 0
KEN1 262205Z 18022KT 28/09 A2984 RMK A01 T02840087  RH  029%=      5-min Rain = 0
KEN1 262206Z 18021G26KT 29/09 A2984 RMK A01 T02850089  RH  029%=      5-min Rain = 0
KEN1 262207Z 17022G27KT 29/09 A2984 RMK A01 T02850093  RH  030%=      5-min Rain = 0
KEN1 262208Z 17025KT 29/09 A2984 RMK A01 T02850093  RH  030%=      5-min Rain = 0
KEN1 262209Z 17021KT 29/09 A2984 RMK A01 T02850089  RH  029%=      5-min Rain = 0
KEN1 262210Z 18024KT 29/09 A2984 RMK A01 T02850092  RH  030%=      5-min Rain = 0
KEN1 262211Z 18024KT 29/09 A2984 RMK A01 T02850092  RH  030%=      5-min Rain = 0
KEN1 262212Z 18019KT 29/10 A2984 RMK A01 T02860097  RH  031%=      5-min Rain = 0
KEN1 262213Z 18019KT 29/10 A2984 RMK A01 T02870098  RH  031%=      5-min Rain = 0
KEN1 262214Z 17023KT 29/10 A2983 RMK A01 T02880099  RH  031%=      5-min Rain = 0
KEN1 262215Z 16022G27KT 29/10 A2983 RMK A01 T02870100  RH  031%=      5-min Rain = 0
KEN1 262216Z 16024KT 29/10 A2983 RMK A01 T02870097  RH  031%=      5-min Rain = 0
KEN1 262217Z 17021KT 29/10 A2983 RMK A01 T02860100  RH  031%=      5-min Rain = 0
KEN1 262218Z 16022G27KT 29/10 A2983 RMK A01 T02860096  RH  030%=      5-min Rain = 0
KEN1 262219Z 15024G31KT 29/10 A2983 RMK A01 T02850096  RH  031%=      5-min Rain = 0
KEN1 262220Z 16023G28KT 29/09 A2983 RMK A01 T02860091  RH  030%=      5-min Rain = 0
KEN1 262221Z 16025G30KT 29/09 A2982 RMK A01 T02860094  RH  030%=      5-min Rain = 0
KEN1 262222Z 16024KT 29/10 A2982 RMK A01 T02860097  RH  031%=      5-min Rain = 0
KEN1 262223Z 16023KT 29/09 A2982 RMK A01 T02860094  RH  030%=      5-min Rain = 0
KEN1 262224Z 16023G28KT 29/10 A2982 RMK A01 T02860096  RH  030%=      5-min Rain = 0
KEN1 262225Z 16023KT 29/10 A2982 RMK A01 T02870096  RH  030%=      5-min Rain = 0
KEN1 262226Z 16020G25KT 29/10 A2982 RMK A01 T02860102  RH  032%=      5-min Rain = 0
KEN1 262227Z 16021KT 29/10 A2982 RMK A01 T02860101  RH  032%=      5-min Rain = 0
KEN1 262228Z 15021G26KT 29/10 A2982 RMK A01 T02860097  RH  031%=      5-min Rain = 0
KEN1 262229Z 15023G28KT 29/10 A2982 RMK A01 T02860096  RH  030%=      5-min Rain = 0
KEN1 262230Z 16024KT 29/09 A2981 RMK A01 T02870088  RH  029%=      5-min Rain = 0
KEN1 262231Z 17020KT 29/09 A2981 RMK A01 T02870093  RH  030%=      5-min Rain = 0
KEN1 262232Z 17021G27KT 29/09 A2981 RMK A01 T02880087  RH  028%=      5-min Rain = 0
KEN1 262233Z 18026KT 29/08 A2981 RMK A01 T02890083  RH  028%=      5-min Rain = 0
KEN1 262234Z 18024KT 29/08 A2981 RMK A01 T02900084  RH  028%=      5-min Rain = 0
KEN1 262235Z 18024G29KT 29/08 A2981 RMK A01 T02900076  RH  026%=      5-min Rain = 0
KEN1 262236Z 17020KT 29/08 A2981 RMK A01 T02900082  RH  027%=      5-min Rain = 0
KEN1 262237Z 16018KT 29/11 A2981 RMK A01 T02900109  RH  033%=      5-min Rain = 0
KEN1 262238Z 16022G27KT 29/13 A298 RMK A01 T02900134  RH  038%=      5-min Rain = 0
KEN1 262239Z 17022KT 29/13 A298 RMK A01 T02890134  RH  039%=      5-min Rain = 0
KEN1 262240Z 17025KT 29/13 A298 RMK A01 T02870128  RH  037%=      5-min Rain = 0
KEN1 262241Z 16021G27KT 29/13 A298 RMK A01 T02850129  RH  038%=      5-min Rain = 0
KEN1 262242Z 15024KT 29/13 A298 RMK A01 T02850130  RH  039%=      5-min Rain = 0
KEN1 262243Z 15024KT 29/13 A298 RMK A01 T02860128  RH  038%=      5-min Rain = 0
KEN1 262244Z 16023G28KT 29/13 A298 RMK A01 T02860127  RH  038%=      5-min Rain = 0
KEN1 262245Z 15025KT 29/13 A298 RMK A01 T02860130  RH  038%=      5-min Rain = 0
KEN1 262246Z 15025KT 29/14 A298 RMK A01 T02860135  RH  039%=      5-min Rain = 0
KEN1 262247Z 15025KT 29/14 A298 RMK A01 T02850137  RH  040%=      5-min Rain = 0
KEN1 262248Z 15023KT 28/14 A2979 RMK A01 T02840136  RH  040%=      5-min Rain = 0
KEN1 262249Z 16022KT 28/14 A2979 RMK A01 T02830138  RH  041%=      5-min Rain = 0
KEN1 262250Z 15018G23KT 28/14 A2979 RMK A01 T02830138  RH  041%=      5-min Rain = 0
KEN1 262251Z 16023G30KT 29/14 A2979 RMK A01 T02850135  RH  040%=      5-min Rain = 0
KEN1 262252Z 16021G26KT 29/13 A2979 RMK A01 T02860131  RH  038%=      5-min Rain = 0
KEN1 262253Z 16020G28KT 29/13 A2979 RMK A01 T02870130  RH  038%=      5-min Rain = 0
KEN1 262254Z 16026KT 29/12 A2979 RMK A01 T02880120  RH  035%=      5-min Rain = 0
KEN1 262255Z 15026KT 29/13 A2979 RMK A01 T02870127  RH  037%=      5-min Rain = 0
KEN1 262256Z 15024KT 29/13 A2979 RMK A01 T02850134  RH  039%=      5-min Rain = 0
KEN1 262257Z 14027KT 29/14 A2978 RMK A01 T02850136  RH  040%=      5-min Rain = 0
KEN1 262258Z 15021G29KT 28/13 A2978 RMK A01 T02840134  RH  040%=      5-min Rain = 0
KEN1 262259Z 16021G26KT 28/14 A2978 RMK A01 T02840135  RH  040%=      5-min Rain = 0
KEN1 262300Z 15027KT 29/12 A2978 RMK A01 T02850123  RH  037%=      5-min Rain = 0
KEN1 262301Z 15024G31KT 29/13 A2978 RMK A01 T02850130  RH  039%=      5-min Rain = 0
KEN1 262302Z 15027KT 28/14 A2978 RMK A01 T02830137  RH  041%=      5-min Rain = 0
KEN1 262303Z 16029G35KT 28/13 A2979 RMK A01 T02830133  RH  040%=      5-min Rain = 0
KEN1 262304Z 16030KT 28/12 A2979 RMK A01 T02830120  RH  036%=      5-min Rain = 0
KEN1 262305Z 16027KT 28/12 A2979 RMK A01 T02830121  RH  037%=      5-min Rain = 0
KEN1 262306Z 15029KT 28/13 A2979 RMK A01 T02830125  RH  038%=      5-min Rain = 0
KEN1 262307Z 16029G35KT 28/13 A2978 RMK A01 T02830131  RH  039%=      5-min Rain = 0
KEN1 262308Z 15026G31KT 28/14 A2978 RMK A01 T02820142  RH  042%=      5-min Rain = 0
KEN1 262309Z 15027G32KT 28/14 A2978 RMK A01 T02820141  RH  042%=      5-min Rain = 0
KEN1 262310Z 15030KT 28/14 A2978 RMK A01 T02810140  RH  042%=      5-min Rain = 0
KEN1 262311Z 15031G37KT 28/14 A2978 RMK A01 T02810139  RH  042%=      5-min Rain = 0
KEN1 262312Z 15027KT 28/14 A2978 RMK A01 T02800144  RH  043%=      5-min Rain = 0
KEN1 262313Z 15027KT 28/15 A2978 RMK A01 T02780147  RH  045%=      5-min Rain = 0
KEN1 262314Z 15027KT 28/15 A2978 RMK A01 T02780149  RH  045%=      5-min Rain = 0
KEN1 262315Z 15030G35KT 28/15 A2978 RMK A01 T02770151  RH  046%=      5-min Rain = 0
KEN1 262316Z 15027G32KT 28/15 A2977 RMK A01 T02760152  RH  047%=      5-min Rain = 0
KEN1 262317Z 15028G34KT 28/16 A2977 RMK A01 T02760155  RH  047%=      5-min Rain = 0
KEN1 262318Z 15030G35KT 28/15 A2977 RMK A01 T02760154  RH  047%=      5-min Rain = 0
KEN1 262319Z 15032KT 28/16 A2977 RMK A01 T02750155  RH  048%=      5-min Rain = 0
KEN1 262320Z 15029G34KT 27/16 A2977 RMK A01 T02740155  RH  048%=      5-min Rain = 0
KEN1 262321Z 15029G35KT 27/16 A2977 RMK A01 T02740158  RH  049%=      5-min Rain = 0
KEN1 262322Z 15032G38KT 27/16 A2976 RMK A01 T02730158  RH  049%=      5-min Rain = 0
KEN1 262323Z 16036G42KT 27/16 A2976 RMK A01 T02730156  RH  049%=      5-min Rain = 0
KEN1 262324Z 16034G40KT 27/15 A2976 RMK A01 T02720153  RH  048%=      5-min Rain = 0
KEN1 262325Z 16034G39KT 27/15 A2976 RMK A01 T02710152  RH  048%=      5-min Rain = 0
KEN1 262326Z 15034G40KT 27/16 A2976 RMK A01 T02700156  RH  050%=      5-min Rain = 0
KEN1 262327Z 16035G42KT 27/17 A2976 RMK A01 T02690165  RH  053%=      5-min Rain = 0
KEN1 262328Z 15034G42KT 27/17 A2976 RMK A01 T02680167  RH  054%=      5-min Rain = 0
KEN1 262329Z 15038KT 27/17 A2976 RMK A01 T02670169  RH  055%=      5-min Rain = 0
KEN1 262330Z 15035G43KT 27/17 A2975 RMK A01 T02670170  RH  055%=      5-min Rain = 0
KEN1 262331Z 15034G39KT 27/17 A2975 RMK A01 T02660170  RH  056%=      5-min Rain = 0
KEN1 262332Z 15034G41KT 27/17 A2976 RMK A01 T02660169  RH  055%=      5-min Rain = 0
KEN1 262333Z 15032G39KT 27/17 A2976 RMK A01 T02660166  RH  054%=      5-min Rain = 0
KEN1 262334Z 15033KT 27/17 A2976 RMK A01 T02660167  RH  055%=      5-min Rain = 0
KEN1 262335Z 15029G35KT 27/17 A2976 RMK A01 T02650172  RH  057%=      5-min Rain = 0
KEN1 262336Z 16030G36KT 27/18 A2975 RMK A01 T02650175  RH  057%=      5-min Rain = 0
KEN1 262337Z 15034KT 27/18 A2975 RMK A01 T02650178  RH  059%=      5-min Rain = 0
KEN1 262338Z 15034G39KT 26/18 A2975 RMK A01 T02630178  RH  059%=      5-min Rain = 0
KEN1 262339Z 15033G44KT 26/18 A2975 RMK A01 T02620175  RH  059%=      5-min Rain = 0
KEN1 262340Z 15036G43KT 26/17 A2975 RMK A01 T02610172  RH  058%=      5-min Rain = 0
KEN1 262341Z 15034KT 26/17 A2975 RMK A01 T02580172  RH  059%=      5-min Rain = 0
KEN1 262342Z 15033G38KT 26/17 A2975 RMK A01 T02570174  RH  060%=      5-min Rain = 0
KEN1 262343Z 15031G36KT 25/18 A2975 RMK A01 T02540176  RH  062%=      5-min Rain = 0
KEN1 262344Z 15033G39KT 25/18 A2975 RMK A01 T02520179  RH  064%=      5-min Rain = 0
KEN1 262345Z 15030KT 25/18 A2976 RMK A01 T02500181  RH  066%=      5-min Rain = 0
KEN1 262346Z 15029G34KT 25/18 A2976 RMK A01 T02480182  RH  067%=      5-min Rain = 0
KEN1 262347Z 15025KT 25/18 A2976 RMK A01 T02470183  RH  067%=      5-min Rain = 0
KEN1 262348Z 15027G34KT 25/18 A2976 RMK A01 T02460183  RH  068%=      5-min Rain = 0
KEN1 262349Z 15026G36KT 25/18 A2977 RMK A01 T02450182  RH  068%=      5-min Rain = 0
KEN1 262350Z 15032KT 24/18 A2977 RMK A01 T02440180  RH  067%=      5-min Rain = 0
KEN1 262351Z 15030KT 24/18 A2977 RMK A01 T02440180  RH  068%=      5-min Rain = 0
KEN1 262352Z 15028G40KT 24/18 A2977 RMK A01 T02440180  RH  067%=      5-min Rain = 0
KEN1 262353Z 15030G36KT 24/18 A2976 RMK A01 T02440176  RH  066%=      5-min Rain = 0
KEN1 262354Z 15031G38KT 24/17 A2976 RMK A01 T02440174  RH  065%=      5-min Rain = 0
KEN1 262355Z 15028G36KT 24/18 A2976 RMK A01 T02430175  RH  066%=      5-min Rain = 0
KEN1 262356Z 15027G33KT 24/18 A2976 RMK A01 T02430176  RH  066%=      5-min Rain = 0
KEN1 262357Z 15029G34KT 24/18 A2975 RMK A01 T02420177  RH  067%=      5-min Rain = 0
KEN1 262358Z 14030G38KT 24/18 A2975 RMK A01 T02420177  RH  067%=      5-min Rain = 0
KEN1 262359Z 14036KT 24/18 A2975 RMK A01 T02410175  RH  066%=      5-min Rain = 0
KEN1 270000Z 15036KT 24/17 A2974 RMK A01 T02410174  RH  066%=      5-min Rain = 0
KEN1 270001Z 15029G35KT 24/17 A2974 RMK A01 T02400174  RH  066%=      5-min Rain = 0
KEN1 270002Z 15029G34KT 24/17 A2974 RMK A01 T02400172  RH  066%=      5-min Rain = 0
KEN1 270003Z 15029KT 24/17 A2974 RMK A01 T02400173  RH  066%=      5-min Rain = 0
KEN1 270004Z 15031G37KT 24/17 A2975 RMK A01 T02390174  RH  067%=      5-min Rain = 0
KEN1 270005Z 15032G37KT 24/17 A2975 RMK A01 T02390174  RH  067%=      5-min Rain = 0
KEN1 270006Z 16030KT 24/17 A2975 RMK A01 T02380174  RH  067%=      5-min Rain = 0
KEN1 270007Z 16025G32KT 24/18 A2976 RMK A01 T02380175  RH  068%=      5-min Rain = 0
KEN1 270008Z 15026KT 24/18 A2976 RMK A01 T02380176  RH  068%=      5-min Rain = 0
KEN1 270009Z 15025G35KT 24/18 A2976 RMK A01 T02370176  RH  069%=      5-min Rain = 0
KEN1 270010Z 16031G37KT 24/17 A2977 RMK A01 T02370174  RH  068%=      5-min Rain = 0
KEN1 270011Z 16029G38KT 24/17 A2978 RMK A01 T02380173  RH  067%=      5-min Rain = 0
KEN1 270012Z 16028G33KT 24/17 A2978 RMK A01 T02380172  RH  067%=      5-min Rain = 0
KEN1 270013Z 16028KT 24/17 A2979 RMK A01 T02380174  RH  067%=      5-min Rain = 0
KEN1 270014Z 16031G38KT 24/17 A2979 RMK A01 T02380174  RH  068%=      5-min Rain = 0
KEN1 270015Z 16024G31KT 24/18 A2979 RMK A01 T02370175  RH  068%=      5-min Rain = 0
KEN1 270016Z 16026G33KT 24/18 A298 RMK A01 T02370175  RH  068%=      5-min Rain = 0
KEN1 270017Z 16025G31KT 24/18 A298 RMK A01 T02360176  RH  069%=      5-min Rain = 0
KEN1 270018Z 17024G30KT 24/18 A2982 RMK A01 T02360176  RH  069%=      5-min Rain = 0
KEN1 270019Z 20021G30KT 24/18 A2985 RMK A01 T02360178  RH  070%=      5-min Rain = 0
KEN1 270020Z 22026G31KT 24/18 A2988 RMK A01 T02350179  RH  071%=      5-min Rain = 0
KEN1 270021Z 25030G38KT 23/16 A2991 RMK A01 T02290158  RH  065%=      5-min Rain = 0
KEN1 270022Z 26031G37KT 20/12 A2992 RMK A01 T02010118  RH  059%=      5-min Rain = 0.01
KEN1 270023Z 26029G37KT 17/12 A2993 RMK A01 T01720116  RH  070%=      5-min Rain = 0.03
KEN1 270024Z 25031G36KT 15/11 A2993 RMK A01 T01510114  RH  079%=      5-min Rain = 0.03
KEN1 270025Z 25030G39KT 14/11 A2993 RMK A01 T01370108  RH  083%=      5-min Rain = 0.05
KEN1 270026Z 24025G30KT 13/11 A2993 RMK A01 T01270105  RH  086%=      5-min Rain = 0.05
KEN1 270027Z 23021G26KT 12/10 A2993 RMK A01 T01210102  RH  088%=      5-min Rain = 0.06
KEN1 270028Z 22021KT 11/10 A2992 RMK A01 T01140097  RH  089%=      5-min Rain = 0.06
KEN1 270029Z 21020KT 11/09 A2991 RMK A01 T01060091  RH  091%=      5-min Rain = 0.08
KEN1 270030Z 19017KT 10/09 A2991 RMK A01 T01010089  RH  092%=      5-min Rain = 0.06
KEN1 270031Z 18016KT 10/09 A2991 RMK A01 T00980089  RH  094%=      5-min Rain = 0.03
KEN1 270032Z 18016KT 10/09 A2992 RMK A01 T00970090  RH  095%=      5-min Rain = 0.01
KEN1 270033Z 17015KT 10/09 A2992 RMK A01 T00970092  RH  096%=      5-min Rain = 0.01
KEN1 270034Z 17015KT 10/10 A2992 RMK A01 T00990095  RH  097%=      5-min Rain = 0.01
KEN1 270035Z 17015KT 10/10 A2991 RMK A01 T01010096  RH  097%=      5-min Rain = 0.01
KEN1 270036Z 16013KT 10/10 A2991 RMK A01 T01010097  RH  097%=      5-min Rain = 0
KEN1 270037Z 17013KT 10/10 A299 RMK A01 T01010096  RH  096%=      5-min Rain = 0.01
KEN1 270038Z 18013KT 10/10 A299 RMK A01 T01010095  RH  096%=      5-min Rain = 0
KEN1 270039Z 18014KT 10/10 A2989 RMK A01 T01010095  RH  096%=      5-min Rain = 0
KEN1 270040Z 18015KT 10/10 A2989 RMK A01 T01020095  RH  096%=      5-min Rain = 0
KEN1 270041Z 17017KT 10/10 A2989 RMK A01 T01020096  RH  096%=      5-min Rain = 0
KEN1 270042Z 17017KT 10/10 A299 RMK A01 T01030096  RH  095%=      5-min Rain = 0
KEN1 270043Z 16017G22KT 10/10 A2989 RMK A01 T01040096  RH  095%=      5-min Rain = 0
KEN1 270044Z 15018KT 10/10 A2989 RMK A01 T01040096  RH  095%=      5-min Rain = 0.01
KEN1 270045Z 15017KT 10/10 A2989 RMK A01 T01040096  RH  095%=      5-min Rain = 0
KEN1 270046Z 14016KT 10/10 A2989 RMK A01 T01040096  RH  095%=      5-min Rain = 0
KEN1 270047Z 14015KT 10/10 A2989 RMK A01 T01040095  RH  095%=      5-min Rain = 0
KEN1 270048Z 13016KT 10/10 A2989 RMK A01 T01030095  RH  095%=      5-min Rain = 0
KEN1 270049Z 13017KT 10/10 A2989 RMK A01 T01020095  RH  095%=      5-min Rain = 0
KEN1 270050Z 13016KT 10/10 A2989 RMK A01 T01020095  RH  095%=      5-min Rain = 0
KEN1 270051Z 13016KT 10/10 A2989 RMK A01 T01020095  RH  095%=      5-min Rain = 0
KEN1 270052Z 12016KT 10/10 A2989 RMK A01 T01020095  RH  095%=      5-min Rain = 0
KEN1 270053Z 13015KT 10/10 A2988 RMK A01 T01020096  RH  095%=      5-min Rain = 0
KEN1 270054Z 13014KT 10/10 A2989 RMK A01 T01030096  RH  096%=      5-min Rain = 0
KEN1 270055Z 14014KT 10/10 A2989 RMK A01 T01040098  RH  096%=      5-min Rain = 0
KEN1 270056Z 14015KT 11/10 A2989 RMK A01 T01060099  RH  095%=      5-min Rain = 0
KEN1 270057Z 15015KT 11/10 A299 RMK A01 T01070099  RH  095%=      5-min Rain = 0
KEN1 270058Z 15014KT 11/10 A299 RMK A01 T01080099  RH  094%=      5-min Rain = 0
KEN1 270059Z 15016KT 11/10 A299 RMK A01 T01080099  RH  094%=      5-min Rain = 0
KEN1 270100Z 14014KT 11/10 A299 RMK A01 T01090099  RH  093%=      5-min Rain = 0
KEN1 270101Z 14013KT 11/10 A2989 RMK A01 T01090098  RH  093%=      5-min Rain = 0
KEN1 270102Z 13013KT 11/10 A2989 RMK A01 T01090099  RH  093%=      5-min Rain = 0
KEN1 270103Z 12014KT 11/10 A2988 RMK A01 T01090100  RH  094%=      5-min Rain = 0
KEN1 270104Z 13015KT 11/10 A2988 RMK A01 T01090100  RH  094%=      5-min Rain = 0
KEN1 270105Z 13016KT 11/10 A2988 RMK A01 T01110101  RH  094%=      5-min Rain = 0.01
KEN1 270106Z 14016KT 11/10 A2988 RMK A01 T01130104  RH  094%=      5-min Rain = 0
KEN1 270107Z 14014KT 12/11 A2988 RMK A01 T01150105  RH  094%=      5-min Rain = 0
KEN1 270108Z 15015KT 12/11 A2988 RMK A01 T01160106  RH  093%=      5-min Rain = 0
KEN1 270109Z 15014KT 12/11 A2989 RMK A01 T01170106  RH  093%=      5-min Rain = 0
KEN1 270110Z 15014KT 12/11 A2989 RMK A01 T01180107  RH  093%=      5-min Rain = 0
KEN1 270111Z 15015KT 12/11 A2988 RMK A01 T01180107  RH  093%=      5-min Rain = 0
KEN1 270112Z 16014KT 12/11 A2989 RMK A01 T01190107  RH  093%=      5-min Rain = 0
KEN1 270113Z 16015KT 12/11 A299 RMK A01 T01190108  RH  092%=      5-min Rain = 0
KEN1 270114Z 16013G18KT 12/11 A299 RMK A01 T01200108  RH  092%=      5-min Rain = 0
KEN1 270115Z 16013KT 12/11 A299 RMK A01 T01210109  RH  092%=      5-min Rain = 0
KEN1 270116Z 16012KT 12/11 A299 RMK A01 T01210109  RH  092%=      5-min Rain = 0
KEN1 270117Z 16013KT 12/11 A299 RMK A01 T01220110  RH  092%=      5-min Rain = 0
KEN1 270118Z 16012KT 12/11 A2989 RMK A01 T01230111  RH  092%=      5-min Rain = 0
KEN1 270119Z 16014KT 13/11 A2989 RMK A01 T01250112  RH  092%=      5-min Rain = 0
KEN1 270120Z 17015KT 13/11 A2989 RMK A01 T01270112  RH  091%=      5-min Rain = 0
KEN1 270121Z 16013KT 13/11 A2989 RMK A01 T01280112  RH  090%=      5-min Rain = 0
KEN1 270122Z 17012KT 13/11 A2989 RMK A01 T01290111  RH  089%=      5-min Rain = 0
KEN1 270123Z 16011KT 13/11 A2988 RMK A01 T01290112  RH  089%=      5-min Rain = 0
KEN1 270124Z 17011KT 13/11 A2988 RMK A01 T01300111  RH  089%=      5-min Rain = 0
KEN1 270125Z 16011KT 13/11 A2988 RMK A01 T01300111  RH  088%=      5-min Rain = 0
KEN1 270126Z 16010KT 13/11 A2988 RMK A01 T01300110  RH  088%=      5-min Rain = 0
KEN1 270127Z 16009KT 13/11 A2988 RMK A01 T01310111  RH  088%=      5-min Rain = 0
KEN1 270128Z 15009KT 13/11 A2988 RMK A01 T01310111  RH  088%=      5-min Rain = 0
KEN1 270129Z 15009KT 13/11 A2988 RMK A01 T01310112  RH  088%=      5-min Rain = 0
KEN1 270130Z 15008KT 13/11 A2988 RMK A01 T01310112  RH  088%=      5-min Rain = 0
KEN1 270131Z 15008KT 13/11 A2988 RMK A01 T01310111  RH  088%=      5-min Rain = 0
KEN1 270132Z 14009KT 13/11 A2988 RMK A01 T01310112  RH  088%=      5-min Rain = 0
KEN1 270133Z 14010KT 13/11 A2989 RMK A01 T01310112  RH  088%=      5-min Rain = 0
KEN1 270134Z 14009KT 13/11 A2989 RMK A01 T01310112  RH  088%=      5-min Rain = 0
KEN1 270135Z 14009KT 13/11 A2989 RMK A01 T01310112  RH  088%=      5-min Rain = 0
KEN1 270136Z 13007KT 13/11 A2988 RMK A01 T01310113  RH  089%=      5-min Rain = 0
KEN1 270137Z 14007KT 13/11 A2989 RMK A01 T01310114  RH  089%=      5-min Rain = 0
KEN1 270138Z 15011KT 13/12 A2989 RMK A01 T01300115  RH  090%=      5-min Rain = 0
KEN1 270139Z 15012KT 13/12 A299 RMK A01 T01300115  RH  090%=      5-min Rain = 0
KEN1 270140Z 15014KT 13/12 A299 RMK A01 T01310116  RH  091%=      5-min Rain = 0
KEN1 270141Z 16015KT 13/12 A299 RMK A01 T01320116  RH  090%=      5-min Rain = 0
KEN1 270142Z 16017KT 13/12 A299 RMK A01 T01330116  RH  089%=      5-min Rain = 0
KEN1 270143Z 16015KT 13/12 A299 RMK A01 T01340115  RH  088%=      5-min Rain = 0
KEN1 270144Z 16015KT 14/12 A299 RMK A01 T01350115  RH  088%=      5-min Rain = 0
KEN1 270145Z 16016KT 14/11 A299 RMK A01 T01360114  RH  087%=      5-min Rain = 0
KEN1 270146Z 15013KT 14/11 A299 RMK A01 T01380113  RH  085%=      5-min Rain = 0
KEN1 270147Z 15012KT 14/11 A299 RMK A01 T01380113  RH  085%=      5-min Rain = 0
KEN1 270148Z 15011KT 14/11 A299 RMK A01 T01390114  RH  085%=      5-min Rain = 0
KEN1 270149Z 16011KT 14/12 A299 RMK A01 T01380115  RH  086%=      5-min Rain = 0
KEN1 270150Z 16013KT 14/11 A299 RMK A01 T01380113  RH  085%=      5-min Rain = 0
KEN1 270151Z 16013KT 14/11 A2989 RMK A01 T01390113  RH  084%=      5-min Rain = 0
KEN1 270152Z 15012KT 14/11 A2989 RMK A01 T01400112  RH  083%=      5-min Rain = 0
KEN1 270153Z 15010KT 14/11 A2988 RMK A01 T01410112  RH  083%=      5-min Rain = 0
KEN1 270154Z 15012KT 14/11 A2988 RMK A01 T01410113  RH  083%=      5-min Rain = 0
KEN1 270155Z 15013KT 14/11 A2989 RMK A01 T01410113  RH  083%=      5-min Rain = 0
KEN1 270156Z 15013KT 14/11 A2989 RMK A01 T01400114  RH  084%=      5-min Rain = 0
KEN1 270157Z 15013KT 14/11 A2989 RMK A01 T01400114  RH  084%=      5-min Rain = 0
KEN1 270158Z 15012KT 14/11 A2989 RMK A01 T01390114  RH  085%=      5-min Rain = 0
KEN1 270159Z 15012KT 14/12 A2989 RMK A01 T01390115  RH  085%=      5-min Rain = 0
KEN1 270200Z 15014KT 14/12 A299 RMK A01 T01390115  RH  086%=      5-min Rain = 0
KEN1 270201Z 15014KT 14/12 A299 RMK A01 T01380116  RH  086%=      5-min Rain = 0
KEN1 270202Z 15015KT 14/12 A299 RMK A01 T01380116  RH  087%=      5-min Rain = 0
KEN1 270203Z 14014KT 14/12 A299 RMK A01 T01380116  RH  087%=      5-min Rain = 0
KEN1 270204Z 15013KT 14/12 A299 RMK A01 T01380116  RH  087%=      5-min Rain = 0
KEN1 270205Z 15012KT 14/12 A299 RMK A01 T01380115  RH  086%=      5-min Rain = 0
KEN1 270206Z 15011KT 14/12 A299 RMK A01 T01380115  RH  086%=      5-min Rain = 0
KEN1 270207Z 15010KT 14/12 A299 RMK A01 T01380115  RH  086%=      5-min Rain = 0
KEN1 270208Z 15009KT 14/12 A299 RMK A01 T01380115  RH  086%=      5-min Rain = 0
KEN1 270209Z 15008KT 14/12 A299 RMK A01 T01380116  RH  086%=      5-min Rain = 0
KEN1 270210Z 15008KT 14/12 A2989 RMK A01 T01390116  RH  086%=      5-min Rain = 0
KEN1 270211Z 15007KT 14/12 A2989 RMK A01 T01390116  RH  086%=      5-min Rain = 0
KEN1 270212Z 15008KT 14/12 A2989 RMK A01 T01380116  RH  086%=      5-min Rain = 0
KEN1 270213Z 15009KT 14/12 A299 RMK A01 T01390116  RH  086%=      5-min Rain = 0
KEN1 270214Z 15008KT 14/12 A299 RMK A01 T01400117  RH  086%=      5-min Rain = 0
KEN1 270215Z 15008KT 14/12 A299 RMK A01 T01400117  RH  086%=      5-min Rain = 0
KEN1 270216Z 15009KT 14/12 A299 RMK A01 T01390117  RH  086%=      5-min Rain = 0
KEN1 270217Z 15008KT 14/12 A299 RMK A01 T01400118  RH  087%=      5-min Rain = 0
KEN1 270218Z 15007KT 14/12 A299 RMK A01 T01390118  RH  087%=      5-min Rain = 0
KEN1 270219Z 15006KT 14/12 A299 RMK A01 T01390118  RH  087%=      5-min Rain = 0
KEN1 270220Z 14008KT 14/12 A2989 RMK A01 T01390118  RH  087%=      5-min Rain = 0
KEN1 270221Z 14009KT 14/12 A299 RMK A01 T01390118  RH  087%=      5-min Rain = 0
KEN1 270222Z 14009KT 14/12 A2989 RMK A01 T01400118  RH  087%=      5-min Rain = 0
KEN1 270223Z 13010KT 14/12 A2989 RMK A01 T01400118  RH  087%=      5-min Rain = 0
KEN1 270224Z 13008KT 14/12 A2989 RMK A01 T01410119  RH  087%=      5-min Rain = 0
KEN1 270225Z 13007KT 14/12 A2989 RMK A01 T01410119  RH  086%=      5-min Rain = 0
KEN1 270226Z 13007KT 14/12 A2989 RMK A01 T01410118  RH  086%=      5-min Rain = 0
KEN1 270227Z 13008KT 14/12 A2989 RMK A01 T01420118  RH  086%=      5-min Rain = 0
KEN1 270228Z 13008KT 14/12 A2989 RMK A01 T01430118  RH  085%=      5-min Rain = 0
KEN1 270229Z 13009KT 14/12 A2989 RMK A01 T01430119  RH  085%=      5-min Rain = 0
KEN1 270230Z 13009KT 14/12 A2989 RMK A01 T01440119  RH  085%=      5-min Rain = 0
KEN1 270231Z 12009KT 14/12 A299 RMK A01 T01440119  RH  085%=      5-min Rain = 0
KEN1 270232Z 12008KT 14/12 A2989 RMK A01 T01440119  RH  085%=      5-min Rain = 0
KEN1 270233Z 13007KT 14/12 A2989 RMK A01 T01440120  RH  085%=      5-min Rain = 0
KEN1 270234Z 13007KT 14/12 A2989 RMK A01 T01440120  RH  086%=      5-min Rain = 0
KEN1 270235Z 15007KT 14/12 A2989 RMK A01 T01440121  RH  086%=      5-min Rain = 0
KEN1 270236Z 15006KT 14/12 A2989 RMK A01 T01430121  RH  087%=      5-min Rain = 0
KEN1 270237Z 15008KT 14/12 A2989 RMK A01 T01430121  RH  087%=      5-min Rain = 0
KEN1 270238Z 15008KT 14/12 A2989 RMK A01 T01440120  RH  086%=      5-min Rain = 0
KEN1 270239Z 15009KT 14/12 A2989 RMK A01 T01440121  RH  086%=      5-min Rain = 0
KEN1 270240Z 15008KT 14/12 A2988 RMK A01 T01440121  RH  086%=      5-min Rain = 0
KEN1 270241Z 15008KT 14/12 A2988 RMK A01 T01440122  RH  087%=      5-min Rain = 0
KEN1 270242Z 15008KT 14/12 A2988 RMK A01 T01440122  RH  087%=      5-min Rain = 0
KEN1 270243Z 15009KT 14/12 A2988 RMK A01 T01440122  RH  087%=      5-min Rain = 0
KEN1 270244Z 14009KT 14/12 A2988 RMK A01 T01440123  RH  087%=      5-min Rain = 0
KEN1 270245Z 15009KT 14/12 A2988 RMK A01 T01440123  RH  087%=      5-min Rain = 0
KEN1 270246Z 15010KT 14/12 A2988 RMK A01 T01440123  RH  088%=      5-min Rain = 0
KEN1 270247Z 16008KT 14/12 A2988 RMK A01 T01440123  RH  088%=      5-min Rain = 0
KEN1 270248Z 16009KT 14/12 A2988 RMK A01 T01440123  RH  088%=      5-min Rain = 0
KEN1 270249Z 16008KT 14/12 A2988 RMK A01 T01440124  RH  087%=      5-min Rain = 0
KEN1 270250Z 15009KT 14/12 A2988 RMK A01 T01440124  RH  088%=      5-min Rain = 0
KEN1 270251Z 14008KT 14/12 A2988 RMK A01 T01440124  RH  088%=      5-min Rain = 0
KEN1 270252Z 15008KT 14/12 A2988 RMK A01 T01440124  RH  088%=      5-min Rain = 0
KEN1 270253Z 17006KT 14/13 A2988 RMK A01 T01440125  RH  088%=      5-min Rain = 0
KEN1 270254Z 18005KT 14/13 A2988 RMK A01 T01440125  RH  088%=      5-min Rain = 0
KEN1 270255Z 21003KT 14/12 A2989 RMK A01 T01440124  RH  088%=      5-min Rain = 0
KEN1 270256Z 26004KT 14/13 A2989 RMK A01 T01440125  RH  088%=      5-min Rain = 0
KEN1 270257Z 30007KT 14/13 A299 RMK A01 T01440126  RH  089%=      5-min Rain = 0
KEN1 270258Z 32010KT 14/13 A299 RMK A01 T01430126  RH  089%=      5-min Rain = 0
KEN1 270259Z 32011KT 14/13 A299 RMK A01 T01430126  RH  089%=      5-min Rain = 0
KEN1 270300Z 33010KT 14/12 A2991 RMK A01 T01420124  RH  089%=      5-min Rain = 0
KEN1 270301Z 31008KT 14/12 A2991 RMK A01 T01420123  RH  088%=      5-min Rain = 0
KEN1 270302Z 34007KT 14/12 A2991 RMK A01 T01420122  RH  088%=      5-min Rain = 0
KEN1 270303Z 32006KT 14/12 A2991 RMK A01 T01420123  RH  088%=      5-min Rain = 0
KEN1 270304Z 31008KT 14/12 A2991 RMK A01 T01410122  RH  089%=      5-min Rain = 0
KEN1 270305Z 32010KT 14/12 A2991 RMK A01 T01400121  RH  089%=      5-min Rain = 0
KEN1 270306Z 34010KT 14/12 A2991 RMK A01 T01400121  RH  088%=      5-min Rain = 0
KEN1 270307Z 35008KT 14/12 A2991 RMK A01 T01400119  RH  087%=      5-min Rain = 0
KEN1 270308Z 34006KT 14/12 A2991 RMK A01 T01410118  RH  086%=      5-min Rain = 0
KEN1 270309Z 35002KT 14/12 A2992 RMK A01 T01430117  RH  085%=      5-min Rain = 0
KEN1 270310Z 01002KT 14/12 A2991 RMK A01 T01440118  RH  084%=      5-min Rain = 0
KEN1 270311Z 04001KT 15/12 A2991 RMK A01 T01450118  RH  084%=      5-min Rain = 0
KEN1 270312Z 11001KT 15/12 A2991 RMK A01 T01450117  RH  083%=      5-min Rain = 0
KEN1 270313Z 00000KT 15/12 A2991 RMK A01 T01470117  RH  083%=      5-min Rain = 0
KEN1 270314Z 36003KT 15/12 A2991 RMK A01 T01470118  RH  082%=      5-min Rain = 0
KEN1 270315Z 31005KT 15/12 A2991 RMK A01 T01480119  RH  083%=      5-min Rain = 0
KEN1 270316Z 32005KT 15/12 A2992 RMK A01 T01490119  RH  082%=      5-min Rain = 0
KEN1 270317Z 32005KT 15/12 A2992 RMK A01 T01500120  RH  082%=      5-min Rain = 0
KEN1 270318Z 31005KT 15/12 A2992 RMK A01 T01500122  RH  083%=      5-min Rain = 0
KEN1 270319Z 32006KT 15/12 A2992 RMK A01 T01500123  RH  084%=      5-min Rain = 0
KEN1 270320Z 32006KT 15/12 A2992 RMK A01 T01500124  RH  084%=      5-min Rain = 0
KEN1 270321Z 32005KT 15/12 A2993 RMK A01 T01500124  RH  085%=      5-min Rain = 0
KEN1 270322Z 33006KT 15/12 A2993 RMK A01 T01500124  RH  084%=      5-min Rain = 0
KEN1 270323Z 33006KT 15/12 A2993 RMK A01 T01500123  RH  084%=      5-min Rain = 0
KEN1 270324Z 34006KT 15/12 A2993 RMK A01 T01500122  RH  084%=      5-min Rain = 0
KEN1 270325Z 36006KT 15/12 A2993 RMK A01 T01480121  RH  084%=      5-min Rain = 0
KEN1 270326Z 01006KT 15/12 A2992 RMK A01 T01470122  RH  085%=      5-min Rain = 0
KEN1 270327Z 00007KT 15/12 A2992 RMK A01 T01460123  RH  086%=      5-min Rain = 0
KEN1 270328Z 35008KT 15/12 A2993 RMK A01 T01450123  RH  087%=      5-min Rain = 0
KEN1 270329Z 34007KT 14/12 A2993 RMK A01 T01440124  RH  088%=      5-min Rain = 0
KEN1 270330Z 35007KT 14/12 A2994 RMK A01 T01440124  RH  088%=      5-min Rain = 0
KEN1 270331Z 35008KT 14/12 A2994 RMK A01 T01440124  RH  088%=      5-min Rain = 0
KEN1 270332Z 35009KT 14/12 A2994 RMK A01 T01440124  RH  088%=      5-min Rain = 0
KEN1 270333Z 36009KT 15/12 A2994 RMK A01 T01450124  RH  087%=      5-min Rain = 0
KEN1 270334Z 36008KT 15/12 A2993 RMK A01 T01460123  RH  086%=      5-min Rain = 0
KEN1 270335Z 00007KT 15/12 A2993 RMK A01 T01460122  RH  086%=      5-min Rain = 0
KEN1 270336Z 01006KT 15/12 A2993 RMK A01 T01460121  RH  085%=      5-min Rain = 0.01
KEN1 270337Z 01005KT 15/12 A2993 RMK A01 T01470119  RH  083%=      5-min Rain = 0
KEN1 270338Z 03005KT 15/12 A2993 RMK A01 T01480120  RH  083%=      5-min Rain = 0
KEN1 270339Z 05005KT 15/12 A2992 RMK A01 T01480122  RH  084%=      5-min Rain = 0
KEN1 270340Z 05005KT 15/12 A2992 RMK A01 T01460122  RH  086%=      5-min Rain = 0
KEN1 270341Z 06005KT 14/12 A2992 RMK A01 T01440121  RH  086%=      5-min Rain = 0
KEN1 270342Z 07005KT 15/12 A2992 RMK A01 T01450121  RH  086%=      5-min Rain = 0
KEN1 270343Z 06006KT 15/12 A2992 RMK A01 T01450122  RH  086%=      5-min Rain = 0
KEN1 270344Z 07005KT 15/12 A2992 RMK A01 T01450122  RH  086%=      5-min Rain = 0
KEN1 270345Z 08003KT 15/12 A2992 RMK A01 T01460123  RH  086%=      5-min Rain = 0
KEN1 270346Z 07004KT 15/12 A2992 RMK A01 T01480121  RH  084%=      5-min Rain = 0
KEN1 270347Z 06004KT 15/12 A2992 RMK A01 T01500121  RH  083%=      5-min Rain = 0
KEN1 270348Z 04002KT 15/12 A2992 RMK A01 T01500121  RH  083%=      5-min Rain = 0
KEN1 270349Z 35000KT 15/12 A2992 RMK A01 T01500124  RH  084%=      5-min Rain = 0
KEN1 270350Z 14001KT 15/12 A2992 RMK A01 T01520124  RH  083%=      5-min Rain = 0
KEN1 270351Z 11000KT 16/12 A2992 RMK A01 T01550123  RH  081%=      5-min Rain = 0
KEN1 270352Z 19000KT 16/12 A2992 RMK A01 T01560123  RH  081%=      5-min Rain = 0
KEN1 270353Z 21002KT 16/13 A2992 RMK A01 T01560125  RH  082%=      5-min Rain = 0
KEN1 270354Z 22002KT 16/13 A2992 RMK A01 T01580128  RH  082%=      5-min Rain = 0
KEN1 270355Z 27001KT 16/13 A2992 RMK A01 T01590129  RH  082%=      5-min Rain = 0
KEN1 270356Z 28001KT 16/13 A2992 RMK A01 T01580129  RH  083%=      5-min Rain = 0
KEN1 270357Z 31001KT 16/13 A2992 RMK A01 T01560128  RH  083%=      5-min Rain = 0
KEN1 270358Z 03000KT 16/13 A2992 RMK A01 T01550129  RH  085%=      5-min Rain = 0
KEN1 270359Z 06002KT 15/13 A2992 RMK A01 T01540128  RH  085%=      5-min Rain = 0
KEN1 270400Z 07003KT 15/13 A2992 RMK A01 T01510127  RH  086%=      5-min Rain = 0
KEN1 270401Z 07003KT 15/13 A2992 RMK A01 T01500128  RH  086%=      5-min Rain = 0
KEN1 270402Z 06002KT 15/13 A2992 RMK A01 T01490128  RH  087%=      5-min Rain = 0
KEN1 270403Z 05002KT 15/13 A2992 RMK A01 T01480128  RH  088%=      5-min Rain = 0
KEN1 270404Z 02002KT 15/13 A2992 RMK A01 T01480128  RH  088%=      5-min Rain = 0
KEN1 270405Z 36003KT 15/13 A2992 RMK A01 T01480130  RH  089%=      5-min Rain = 0
KEN1 270406Z 34005KT 15/13 A2992 RMK A01 T01480131  RH  090%=      5-min Rain = 0
KEN1 270407Z 35004KT 15/13 A2992 RMK A01 T01470131  RH  090%=      5-min Rain = 0
KEN1 270408Z 01004KT 15/13 A2992 RMK A01 T01470131  RH  090%=      5-min Rain = 0
KEN1 270409Z 01005KT 15/13 A2992 RMK A01 T01460131  RH  090%=      5-min Rain = 0
KEN1 270410Z 01004KT 15/13 A2992 RMK A01 T01470129  RH  089%=      5-min Rain = 0
KEN1 270411Z 01004KT 15/13 A2992 RMK A01 T01470129  RH  089%=      5-min Rain = 0
KEN1 270412Z 01005KT 15/13 A2992 RMK A01 T01470129  RH  089%=      5-min Rain = 0
KEN1 270413Z 01004KT 15/13 A2992 RMK A01 T01480128  RH  088%=      5-min Rain = 0
KEN1 270414Z 00004KT 15/13 A2992 RMK A01 T01480127  RH  087%=      5-min Rain = 0
KEN1 270415Z 01004KT 15/13 A2992 RMK A01 T01490126  RH  086%=      5-min Rain = 0
KEN1 270416Z 02003KT 15/13 A2992 RMK A01 T01500127  RH  086%=      5-min Rain = 0
KEN1 270417Z 03004KT 15/13 A2992 RMK A01 T01500129  RH  087%=      5-min Rain = 0
KEN1 270418Z 02003KT 15/13 A2992 RMK A01 T01510129  RH  087%=      5-min Rain = 0
KEN1 270419Z 01003KT 15/13 A2992 RMK A01 T01510128  RH  087%=      5-min Rain = 0
KEN1 270420Z 36002KT 15/13 A2992 RMK A01 T01500128  RH  087%=      5-min Rain = 0
KEN1 270421Z 34002KT 15/13 A2992 RMK A01 T01510128  RH  086%=      5-min Rain = 0
KEN1 270422Z 33003KT 15/13 A2992 RMK A01 T01510128  RH  086%=      5-min Rain = 0
KEN1 270423Z 32002KT 15/13 A2992 RMK A01 T01510129  RH  087%=      5-min Rain = 0
KEN1 270424Z 32002KT 15/13 A2992 RMK A01 T01510131  RH  088%=      5-min Rain = 0
KEN1 270425Z 30002KT 15/13 A2992 RMK A01 T01520132  RH  088%=      5-min Rain = 0
KEN1 270426Z 28003KT 15/13 A2992 RMK A01 T01510132  RH  088%=      5-min Rain = 0
KEN1 270427Z 30001KT 15/13 A2992 RMK A01 T01520133  RH  088%=      5-min Rain = 0
KEN1 270428Z 04001KT 15/13 A2991 RMK A01 T01530133  RH  088%=      5-min Rain = 0
KEN1 270429Z 10002KT 15/13 A2991 RMK A01 T01530133  RH  088%=      5-min Rain = 0
KEN1 270430Z 10002KT 15/13 A2991 RMK A01 T01520133  RH  088%=      5-min Rain = 0
KEN1 270431Z 08002KT 15/13 A2991 RMK A01 T01520131  RH  087%=      5-min Rain = 0
KEN1 270432Z 08003KT 15/13 A299 RMK A01 T01520130  RH  087%=      5-min Rain = 0
KEN1 270433Z 08004KT 15/13 A299 RMK A01 T01520129  RH  086%=      5-min Rain = 0
KEN1 270434Z 08004KT 15/13 A299 RMK A01 T01520131  RH  087%=      5-min Rain = 0
KEN1 270435Z 06003KT 15/13 A299 RMK A01 T01510131  RH  088%=      5-min Rain = 0
KEN1 270436Z 05002KT 15/13 A299 RMK A01 T01510129  RH  086%=      5-min Rain = 0
KEN1 270437Z 03002KT 15/13 A299 RMK A01 T01510129  RH  086%=      5-min Rain = 0
KEN1 270438Z 01002KT 15/13 A299 RMK A01 T01520131  RH  087%=      5-min Rain = 0
KEN1 270439Z 01002KT 15/13 A299 RMK A01 T01520132  RH  088%=      5-min Rain = 0
KEN1 270440Z 01002KT 15/13 A299 RMK A01 T01520132  RH  088%=      5-min Rain = 0
KEN1 270441Z 35002KT 15/13 A299 RMK A01 T01520131  RH  087%=      5-min Rain = 0
KEN1 270442Z 30003KT 15/13 A2991 RMK A01 T01530132  RH  087%=      5-min Rain = 0
KEN1 270443Z 28008KT 15/13 A2992 RMK A01 T01530134  RH  089%=      5-min Rain = 0
KEN1 270444Z 28011KT 15/14 A2992 RMK A01 T01540138  RH  090%=      5-min Rain = 0
KEN1 270445Z 28008KT 15/14 A2992 RMK A01 T01540139  RH  091%=      5-min Rain = 0
KEN1 270446Z 27007KT 15/14 A2992 RMK A01 T01540139  RH  091%=      5-min Rain = 0
KEN1 270447Z 24007KT 15/14 A2992 RMK A01 T01530136  RH  090%=      5-min Rain = 0
KEN1 270448Z 22008G16KT 15/13 A2991 RMK A01 T01520134  RH  089%=      5-min Rain = 0
KEN1 270449Z 19009KT 16/14 A299 RMK A01 T01600143  RH  090%=      5-min Rain = 0
KEN1 270450Z 18006KT 17/14 A299 RMK A01 T01670138  RH  083%=      5-min Rain = 0
KEN1 270451Z 16008KT 17/14 A2989 RMK A01 T01680135  RH  081%=      5-min Rain = 0
KEN1 270452Z 17008KT 17/14 A2989 RMK A01 T01660135  RH  082%=      5-min Rain = 0
KEN1 270453Z 19010KT 17/14 A2989 RMK A01 T01650140  RH  086%=      5-min Rain = 0
KEN1 270454Z 19016KT 17/15 A2989 RMK A01 T01700150  RH  088%=      5-min Rain = 0
KEN1 270455Z 17010KT 18/15 A2989 RMK A01 T01760148  RH  083%=      5-min Rain = 0
KEN1 270456Z 19010KT 18/15 A2988 RMK A01 T01770146  RH  082%=      5-min Rain = 0
KEN1 270457Z 18011KT 18/15 A2989 RMK A01 T01790146  RH  081%=      5-min Rain = 0
KEN1 270458Z 17009KT 18/14 A2988 RMK A01 T01790144  RH  080%=      5-min Rain = 0
KEN1 270459Z 17009KT 18/14 A2989 RMK A01 T01770144  RH  081%=      5-min Rain = 0

Page generated in 0.0724 seconds.